<?xml version="1.0" encoding="UTF-8" standalone="no" ?>
<gpx xmlns="http://www.topografix.com/GPX/1/1" xmlns:xsi="http://www.w3.org/2001/XMLSchema-instance" xsi:schemaLocation="http://www.topografix.com/GPX/1/1 http://www.topografix.com/GPX/1/1/gpx.xsd" version="1.1" creator="VisuGPX - https://www.visugpx.com">
  <metadata>
    <name>2021-10-04 Rando Athies Samoussy</name>
    <desc><![CDATA[File with points/tracks from Locus Map/4.4.3]]></desc>
  </metadata>
  <trk>
    <name><![CDATA[2021-10-04 14:04]]></name>
    <extensions>
      <line xmlns="http://www.topografix.com/GPX/gpx_style/0/2">
        <color>0000FF</color>
        <opacity>0.59</opacity>
        <width>6.0</width>
      </line>
    </extensions>
    <trkseg>
      <trkpt lat="49.57269" lon="3.68632">
        <ele>73.64</ele>
        <time>2021-10-04T12:04:21.228Z</time>
      </trkpt>
      <trkpt lat="49.57281" lon="3.68629">
        <ele>73.81</ele>
        <time>2021-10-04T12:04:30.492Z</time>
      </trkpt>
      <trkpt lat="49.57291" lon="3.68623">
        <ele>73.71</ele>
        <time>2021-10-04T12:04:39.843Z</time>
      </trkpt>
      <trkpt lat="49.57297" lon="3.6861">
        <ele>73.64</ele>
        <time>2021-10-04T12:04:49.572Z</time>
      </trkpt>
      <trkpt lat="49.57301" lon="3.68598">
        <ele>73.61</ele>
        <time>2021-10-04T12:04:58.659Z</time>
      </trkpt>
      <trkpt lat="49.57311" lon="3.68592">
        <ele>73.59</ele>
        <time>2021-10-04T12:05:07.781Z</time>
      </trkpt>
      <trkpt lat="49.57327" lon="3.6859">
        <ele>73.53</ele>
        <time>2021-10-04T12:05:17.290Z</time>
      </trkpt>
      <trkpt lat="49.57343" lon="3.68589">
        <ele>73.62</ele>
        <time>2021-10-04T12:05:27.183Z</time>
      </trkpt>
      <trkpt lat="49.57356" lon="3.68592">
        <ele>73.98</ele>
        <time>2021-10-04T12:05:36.537Z</time>
      </trkpt>
      <trkpt lat="49.5737" lon="3.68594">
        <ele>73.92</ele>
        <time>2021-10-04T12:05:45.942Z</time>
      </trkpt>
      <trkpt lat="49.57386" lon="3.68593">
        <ele>73.96</ele>
        <time>2021-10-04T12:05:55.369Z</time>
      </trkpt>
      <trkpt lat="49.574" lon="3.68592">
        <ele>74.07</ele>
        <time>2021-10-04T12:06:05.347Z</time>
      </trkpt>
      <trkpt lat="49.57411" lon="3.68591">
        <ele>74.39</ele>
        <time>2021-10-04T12:06:14.449Z</time>
      </trkpt>
      <trkpt lat="49.57422" lon="3.6859">
        <ele>74.22</ele>
        <time>2021-10-04T12:06:23.926Z</time>
      </trkpt>
      <trkpt lat="49.57435" lon="3.68589">
        <ele>74.53</ele>
        <time>2021-10-04T12:06:34.045Z</time>
      </trkpt>
      <trkpt lat="49.57447" lon="3.68587">
        <ele>74.32</ele>
        <time>2021-10-04T12:06:43.569Z</time>
      </trkpt>
      <trkpt lat="49.57456" lon="3.68582">
        <ele>74.4</ele>
        <time>2021-10-04T12:06:53.103Z</time>
      </trkpt>
      <trkpt lat="49.57464" lon="3.68581">
        <ele>74.12</ele>
        <time>2021-10-04T12:07:02.383Z</time>
      </trkpt>
      <trkpt lat="49.57473" lon="3.68581">
        <ele>74.27</ele>
        <time>2021-10-04T12:07:11.551Z</time>
      </trkpt>
      <trkpt lat="49.57481" lon="3.6858">
        <ele>73.59</ele>
        <time>2021-10-04T12:07:21.000Z</time>
      </trkpt>
      <trkpt lat="49.5749" lon="3.68577">
        <ele>73.18</ele>
        <time>2021-10-04T12:07:30.560Z</time>
      </trkpt>
      <trkpt lat="49.57502" lon="3.68573">
        <ele>72.89</ele>
        <time>2021-10-04T12:07:41.000Z</time>
      </trkpt>
      <trkpt lat="49.57513" lon="3.68568">
        <ele>72.96</ele>
        <time>2021-10-04T12:07:51.000Z</time>
      </trkpt>
      <trkpt lat="49.57524" lon="3.68565">
        <ele>72.99</ele>
        <time>2021-10-04T12:08:00.473Z</time>
      </trkpt>
      <trkpt lat="49.57537" lon="3.68563">
        <ele>72.9</ele>
        <time>2021-10-04T12:08:10.344Z</time>
      </trkpt>
      <trkpt lat="49.57549" lon="3.68563">
        <ele>72.77</ele>
        <time>2021-10-04T12:08:19.571Z</time>
      </trkpt>
      <trkpt lat="49.57559" lon="3.68568">
        <ele>72.69</ele>
        <time>2021-10-04T12:08:28.625Z</time>
      </trkpt>
      <trkpt lat="49.57568" lon="3.68577">
        <ele>72.77</ele>
        <time>2021-10-04T12:08:38.000Z</time>
      </trkpt>
      <trkpt lat="49.57573" lon="3.68591">
        <ele>72.76</ele>
        <time>2021-10-04T12:08:47.263Z</time>
      </trkpt>
      <trkpt lat="49.57578" lon="3.68604">
        <ele>72.84</ele>
        <time>2021-10-04T12:08:57.000Z</time>
      </trkpt>
      <trkpt lat="49.57588" lon="3.68612">
        <ele>72.82</ele>
        <time>2021-10-04T12:09:07.000Z</time>
      </trkpt>
      <trkpt lat="49.57598" lon="3.68616">
        <ele>72.84</ele>
        <time>2021-10-04T12:09:16.417Z</time>
      </trkpt>
      <trkpt lat="49.57611" lon="3.68609">
        <ele>73.05</ele>
        <time>2021-10-04T12:09:26.252Z</time>
      </trkpt>
      <trkpt lat="49.57621" lon="3.68602">
        <ele>72.92</ele>
        <time>2021-10-04T12:09:35.825Z</time>
      </trkpt>
      <trkpt lat="49.57631" lon="3.68599">
        <ele>72.88</ele>
        <time>2021-10-04T12:09:45.000Z</time>
      </trkpt>
      <trkpt lat="49.57642" lon="3.686">
        <ele>72.65</ele>
        <time>2021-10-04T12:09:55.000Z</time>
      </trkpt>
      <trkpt lat="49.57653" lon="3.68601">
        <ele>72.52</ele>
        <time>2021-10-04T12:10:04.509Z</time>
      </trkpt>
      <trkpt lat="49.57663" lon="3.68602">
        <ele>72.89</ele>
        <time>2021-10-04T12:10:13.833Z</time>
      </trkpt>
      <trkpt lat="49.57673" lon="3.68608">
        <ele>72.84</ele>
        <time>2021-10-04T12:10:22.864Z</time>
      </trkpt>
      <trkpt lat="49.57678" lon="3.68622">
        <ele>72.73</ele>
        <time>2021-10-04T12:10:32.000Z</time>
      </trkpt>
      <trkpt lat="49.57688" lon="3.68634">
        <ele>72.83</ele>
        <time>2021-10-04T12:10:41.442Z</time>
      </trkpt>
      <trkpt lat="49.57699" lon="3.68635">
        <ele>72.95</ele>
        <time>2021-10-04T12:10:51.332Z</time>
      </trkpt>
      <trkpt lat="49.5771" lon="3.68636">
        <ele>72.95</ele>
        <time>2021-10-04T12:11:00.574Z</time>
      </trkpt>
      <trkpt lat="49.57721" lon="3.68635">
        <ele>73</ele>
        <time>2021-10-04T12:11:09.970Z</time>
      </trkpt>
      <trkpt lat="49.57732" lon="3.68635">
        <ele>73.16</ele>
        <time>2021-10-04T12:11:19.210Z</time>
      </trkpt>
      <trkpt lat="49.57744" lon="3.68633">
        <ele>73.43</ele>
        <time>2021-10-04T12:11:29.000Z</time>
      </trkpt>
      <trkpt lat="49.57756" lon="3.68627">
        <ele>73.58</ele>
        <time>2021-10-04T12:11:38.230Z</time>
      </trkpt>
      <trkpt lat="49.57768" lon="3.68622">
        <ele>73.73</ele>
        <time>2021-10-04T12:11:48.251Z</time>
      </trkpt>
      <trkpt lat="49.57779" lon="3.68619">
        <ele>74.38</ele>
        <time>2021-10-04T12:11:57.994Z</time>
      </trkpt>
      <trkpt lat="49.57792" lon="3.68616">
        <ele>74.64</ele>
        <time>2021-10-04T12:12:07.106Z</time>
      </trkpt>
      <trkpt lat="49.57803" lon="3.68608">
        <ele>74.83</ele>
        <time>2021-10-04T12:12:16.130Z</time>
      </trkpt>
      <trkpt lat="49.5781" lon="3.68601">
        <ele>74.52</ele>
        <time>2021-10-04T12:12:26.000Z</time>
      </trkpt>
      <trkpt lat="49.57808" lon="3.68614">
        <ele>74.74</ele>
        <time>2021-10-04T12:12:35.192Z</time>
      </trkpt>
      <trkpt lat="49.57808" lon="3.68629">
        <ele>74.6</ele>
        <time>2021-10-04T12:12:44.452Z</time>
      </trkpt>
      <trkpt lat="49.57808" lon="3.68648">
        <ele>74.51</ele>
        <time>2021-10-04T12:12:53.722Z</time>
      </trkpt>
      <trkpt lat="49.5781" lon="3.68664">
        <ele>74.29</ele>
        <time>2021-10-04T12:13:03.000Z</time>
      </trkpt>
      <trkpt lat="49.57812" lon="3.68681">
        <ele>74.5</ele>
        <time>2021-10-04T12:13:12.025Z</time>
      </trkpt>
      <trkpt lat="49.57819" lon="3.68695">
        <ele>74.3</ele>
        <time>2021-10-04T12:13:21.387Z</time>
      </trkpt>
      <trkpt lat="49.57822" lon="3.68684">
        <ele>74.45</ele>
        <time>2021-10-04T12:13:31.000Z</time>
      </trkpt>
      <trkpt lat="49.57825" lon="3.68682">
        <ele>74.68</ele>
        <time>2021-10-04T12:13:40.165Z</time>
      </trkpt>
      <trkpt lat="49.57836" lon="3.68677">
        <ele>74.66</ele>
        <time>2021-10-04T12:13:50.309Z</time>
      </trkpt>
      <trkpt lat="49.57847" lon="3.68674">
        <ele>74.49</ele>
        <time>2021-10-04T12:13:59.537Z</time>
      </trkpt>
      <trkpt lat="49.57854" lon="3.68683">
        <ele>74.27</ele>
        <time>2021-10-04T12:14:08.777Z</time>
      </trkpt>
      <trkpt lat="49.5786" lon="3.68703">
        <ele>74.26</ele>
        <time>2021-10-04T12:14:18.269Z</time>
      </trkpt>
      <trkpt lat="49.57866" lon="3.68717">
        <ele>74.15</ele>
        <time>2021-10-04T12:14:28.000Z</time>
      </trkpt>
      <trkpt lat="49.57872" lon="3.6873">
        <ele>74.05</ele>
        <time>2021-10-04T12:14:37.042Z</time>
      </trkpt>
      <trkpt lat="49.5788" lon="3.68739">
        <ele>74.01</ele>
        <time>2021-10-04T12:14:46.388Z</time>
      </trkpt>
      <trkpt lat="49.57887" lon="3.6875">
        <ele>74.1</ele>
        <time>2021-10-04T12:14:56.374Z</time>
      </trkpt>
      <trkpt lat="49.57895" lon="3.68762">
        <ele>74.28</ele>
        <time>2021-10-04T12:15:05.828Z</time>
      </trkpt>
      <trkpt lat="49.57904" lon="3.68775">
        <ele>74.55</ele>
        <time>2021-10-04T12:15:14.946Z</time>
      </trkpt>
      <trkpt lat="49.5791" lon="3.68785">
        <ele>74.64</ele>
        <time>2021-10-04T12:15:24.473Z</time>
      </trkpt>
      <trkpt lat="49.57917" lon="3.688">
        <ele>74.61</ele>
        <time>2021-10-04T12:15:33.973Z</time>
      </trkpt>
      <trkpt lat="49.57922" lon="3.68813">
        <ele>74.78</ele>
        <time>2021-10-04T12:15:43.489Z</time>
      </trkpt>
      <trkpt lat="49.57923" lon="3.68829">
        <ele>74.63</ele>
        <time>2021-10-04T12:15:53.000Z</time>
      </trkpt>
      <trkpt lat="49.57925" lon="3.68845">
        <ele>74.71</ele>
        <time>2021-10-04T12:16:02.631Z</time>
      </trkpt>
      <trkpt lat="49.57927" lon="3.68859">
        <ele>75.44</ele>
        <time>2021-10-04T12:16:11.869Z</time>
      </trkpt>
      <trkpt lat="49.57929" lon="3.68876">
        <ele>75.22</ele>
        <time>2021-10-04T12:16:22.000Z</time>
      </trkpt>
      <trkpt lat="49.57931" lon="3.68892">
        <ele>75.18</ele>
        <time>2021-10-04T12:16:31.403Z</time>
      </trkpt>
      <trkpt lat="49.57936" lon="3.68906">
        <ele>75.15</ele>
        <time>2021-10-04T12:16:40.546Z</time>
      </trkpt>
      <trkpt lat="49.57941" lon="3.6892">
        <ele>75.92</ele>
        <time>2021-10-04T12:16:50.000Z</time>
      </trkpt>
      <trkpt lat="49.57947" lon="3.68935">
        <ele>75.94</ele>
        <time>2021-10-04T12:16:59.094Z</time>
      </trkpt>
      <trkpt lat="49.57953" lon="3.68949">
        <ele>75.97</ele>
        <time>2021-10-04T12:17:09.000Z</time>
      </trkpt>
      <trkpt lat="49.57958" lon="3.68962">
        <ele>76.08</ele>
        <time>2021-10-04T12:17:18.193Z</time>
      </trkpt>
      <trkpt lat="49.5796" lon="3.6898">
        <ele>76.15</ele>
        <time>2021-10-04T12:17:28.277Z</time>
      </trkpt>
      <trkpt lat="49.57964" lon="3.68995">
        <ele>76.19</ele>
        <time>2021-10-04T12:17:37.413Z</time>
      </trkpt>
      <trkpt lat="49.57968" lon="3.69009">
        <ele>76.18</ele>
        <time>2021-10-04T12:17:47.000Z</time>
      </trkpt>
      <trkpt lat="49.57977" lon="3.6902">
        <ele>76.25</ele>
        <time>2021-10-04T12:17:56.072Z</time>
      </trkpt>
      <trkpt lat="49.57981" lon="3.69035">
        <ele>76.15</ele>
        <time>2021-10-04T12:18:05.384Z</time>
      </trkpt>
      <trkpt lat="49.57983" lon="3.69052">
        <ele>76.26</ele>
        <time>2021-10-04T12:18:14.872Z</time>
      </trkpt>
      <trkpt lat="49.57987" lon="3.69066">
        <ele>84.65</ele>
        <time>2021-10-04T12:18:23.903Z</time>
      </trkpt>
      <trkpt lat="49.5799" lon="3.6908">
        <ele>84.69</ele>
        <time>2021-10-04T12:18:33.000Z</time>
      </trkpt>
      <trkpt lat="49.57996" lon="3.69093">
        <ele>85.6</ele>
        <time>2021-10-04T12:18:42.183Z</time>
      </trkpt>
      <trkpt lat="49.58" lon="3.69108">
        <ele>86.49</ele>
        <time>2021-10-04T12:18:51.189Z</time>
      </trkpt>
      <trkpt lat="49.58004" lon="3.69122">
        <ele>83.78</ele>
        <time>2021-10-04T12:19:00.242Z</time>
      </trkpt>
      <trkpt lat="49.58011" lon="3.69138">
        <ele>82.8</ele>
        <time>2021-10-04T12:19:10.269Z</time>
      </trkpt>
      <trkpt lat="49.58019" lon="3.69157">
        <ele>83.17</ele>
        <time>2021-10-04T12:19:20.363Z</time>
      </trkpt>
      <trkpt lat="49.58025" lon="3.69176">
        <ele>83.39</ele>
        <time>2021-10-04T12:19:30.386Z</time>
      </trkpt>
      <trkpt lat="49.58028" lon="3.6919">
        <ele>83.51</ele>
        <time>2021-10-04T12:19:40.000Z</time>
      </trkpt>
      <trkpt lat="49.58034" lon="3.69204">
        <ele>81.82</ele>
        <time>2021-10-04T12:19:49.150Z</time>
      </trkpt>
      <trkpt lat="49.5804" lon="3.69217">
        <ele>84.24</ele>
        <time>2021-10-04T12:19:58.231Z</time>
      </trkpt>
      <trkpt lat="49.58046" lon="3.69232">
        <ele>84.13</ele>
        <time>2021-10-04T12:20:07.442Z</time>
      </trkpt>
      <trkpt lat="49.58051" lon="3.69245">
        <ele>84.56</ele>
        <time>2021-10-04T12:20:16.709Z</time>
      </trkpt>
      <trkpt lat="49.58057" lon="3.6926">
        <ele>82.96</ele>
        <time>2021-10-04T12:20:26.127Z</time>
      </trkpt>
      <trkpt lat="49.58062" lon="3.69275">
        <ele>82.52</ele>
        <time>2021-10-04T12:20:35.486Z</time>
      </trkpt>
      <trkpt lat="49.58065" lon="3.69293">
        <ele>80.8</ele>
        <time>2021-10-04T12:20:45.000Z</time>
      </trkpt>
      <trkpt lat="49.58067" lon="3.6931">
        <ele>81.25</ele>
        <time>2021-10-04T12:20:54.072Z</time>
      </trkpt>
      <trkpt lat="49.58071" lon="3.69327">
        <ele>83.87</ele>
        <time>2021-10-04T12:21:03.524Z</time>
      </trkpt>
      <trkpt lat="49.58077" lon="3.69343">
        <ele>82.85</ele>
        <time>2021-10-04T12:21:13.000Z</time>
      </trkpt>
      <trkpt lat="49.58082" lon="3.69362">
        <ele>81.27</ele>
        <time>2021-10-04T12:21:22.526Z</time>
      </trkpt>
      <trkpt lat="49.58087" lon="3.69377">
        <ele>83.44</ele>
        <time>2021-10-04T12:21:32.447Z</time>
      </trkpt>
      <trkpt lat="49.58093" lon="3.69389">
        <ele>81.92</ele>
        <time>2021-10-04T12:21:42.243Z</time>
      </trkpt>
      <trkpt lat="49.58099" lon="3.69406">
        <ele>83.27</ele>
        <time>2021-10-04T12:21:52.000Z</time>
      </trkpt>
      <trkpt lat="49.58102" lon="3.69407">
        <ele>82.29</ele>
        <time>2021-10-04T12:22:01.508Z</time>
      </trkpt>
      <trkpt lat="49.58104" lon="3.69421">
        <ele>84</ele>
        <time>2021-10-04T12:22:11.411Z</time>
      </trkpt>
      <trkpt lat="49.58108" lon="3.6944">
        <ele>83.79</ele>
        <time>2021-10-04T12:22:21.304Z</time>
      </trkpt>
      <trkpt lat="49.58114" lon="3.69461">
        <ele>82.61</ele>
        <time>2021-10-04T12:22:30.705Z</time>
      </trkpt>
      <trkpt lat="49.58117" lon="3.6948">
        <ele>84.15</ele>
        <time>2021-10-04T12:22:40.000Z</time>
      </trkpt>
      <trkpt lat="49.58121" lon="3.69497">
        <ele>84.06</ele>
        <time>2021-10-04T12:22:50.243Z</time>
      </trkpt>
      <trkpt lat="49.58129" lon="3.69513">
        <ele>82.85</ele>
        <time>2021-10-04T12:23:00.223Z</time>
      </trkpt>
      <trkpt lat="49.58135" lon="3.69527">
        <ele>83.15</ele>
        <time>2021-10-04T12:23:09.743Z</time>
      </trkpt>
      <trkpt lat="49.5814" lon="3.69541">
        <ele>83.58</ele>
        <time>2021-10-04T12:23:19.168Z</time>
      </trkpt>
      <trkpt lat="49.58143" lon="3.69556">
        <ele>81.59</ele>
        <time>2021-10-04T12:23:28.466Z</time>
      </trkpt>
      <trkpt lat="49.58149" lon="3.69564">
        <ele>81.36</ele>
        <time>2021-10-04T12:23:37.786Z</time>
      </trkpt>
      <trkpt lat="49.58151" lon="3.69583">
        <ele>82.24</ele>
        <time>2021-10-04T12:23:47.269Z</time>
      </trkpt>
      <trkpt lat="49.58148" lon="3.69602">
        <ele>83.68</ele>
        <time>2021-10-04T12:23:57.268Z</time>
      </trkpt>
      <trkpt lat="49.5815" lon="3.69617">
        <ele>85.33</ele>
        <time>2021-10-04T12:24:06.393Z</time>
      </trkpt>
      <trkpt lat="49.58156" lon="3.6963">
        <ele>86.05</ele>
        <time>2021-10-04T12:24:15.924Z</time>
      </trkpt>
      <trkpt lat="49.58164" lon="3.69639">
        <ele>85.34</ele>
        <time>2021-10-04T12:24:25.289Z</time>
      </trkpt>
      <trkpt lat="49.58168" lon="3.69659">
        <ele>85.05</ele>
        <time>2021-10-04T12:24:35.000Z</time>
      </trkpt>
      <trkpt lat="49.58174" lon="3.69675">
        <ele>83.74</ele>
        <time>2021-10-04T12:24:44.026Z</time>
      </trkpt>
      <trkpt lat="49.58178" lon="3.6969">
        <ele>83.3</ele>
        <time>2021-10-04T12:24:53.487Z</time>
      </trkpt>
      <trkpt lat="49.58181" lon="3.69706">
        <ele>82.63</ele>
        <time>2021-10-04T12:25:02.847Z</time>
      </trkpt>
      <trkpt lat="49.58187" lon="3.69721">
        <ele>83.97</ele>
        <time>2021-10-04T12:25:12.270Z</time>
      </trkpt>
      <trkpt lat="49.58192" lon="3.69736">
        <ele>82.74</ele>
        <time>2021-10-04T12:25:21.543Z</time>
      </trkpt>
      <trkpt lat="49.58196" lon="3.69753">
        <ele>82.73</ele>
        <time>2021-10-04T12:25:31.207Z</time>
      </trkpt>
      <trkpt lat="49.58201" lon="3.6977">
        <ele>81.31</ele>
        <time>2021-10-04T12:25:41.000Z</time>
      </trkpt>
      <trkpt lat="49.58209" lon="3.69787">
        <ele>81.41</ele>
        <time>2021-10-04T12:25:50.023Z</time>
      </trkpt>
      <trkpt lat="49.58214" lon="3.69806">
        <ele>82.96</ele>
        <time>2021-10-04T12:25:59.488Z</time>
      </trkpt>
      <trkpt lat="49.58218" lon="3.69824">
        <ele>83.15</ele>
        <time>2021-10-04T12:26:09.004Z</time>
      </trkpt>
      <trkpt lat="49.58224" lon="3.69841">
        <ele>82.53</ele>
        <time>2021-10-04T12:26:18.530Z</time>
      </trkpt>
      <trkpt lat="49.58229" lon="3.69853">
        <ele>81.69</ele>
        <time>2021-10-04T12:26:27.570Z</time>
      </trkpt>
      <trkpt lat="49.58237" lon="3.69866">
        <ele>84.16</ele>
        <time>2021-10-04T12:26:37.047Z</time>
      </trkpt>
      <trkpt lat="49.58239" lon="3.69881">
        <ele>81.71</ele>
        <time>2021-10-04T12:26:46.550Z</time>
      </trkpt>
      <trkpt lat="49.58243" lon="3.699">
        <ele>81.92</ele>
        <time>2021-10-04T12:26:56.032Z</time>
      </trkpt>
      <trkpt lat="49.58248" lon="3.69916">
        <ele>82.79</ele>
        <time>2021-10-04T12:27:05.393Z</time>
      </trkpt>
      <trkpt lat="49.58255" lon="3.6993">
        <ele>83.02</ele>
        <time>2021-10-04T12:27:14.867Z</time>
      </trkpt>
      <trkpt lat="49.58259" lon="3.69946">
        <ele>84.04</ele>
        <time>2021-10-04T12:27:24.351Z</time>
      </trkpt>
      <trkpt lat="49.58263" lon="3.69963">
        <ele>84.57</ele>
        <time>2021-10-04T12:27:33.747Z</time>
      </trkpt>
      <trkpt lat="49.58266" lon="3.69978">
        <ele>84.27</ele>
        <time>2021-10-04T12:27:43.000Z</time>
      </trkpt>
      <trkpt lat="49.58271" lon="3.69993">
        <ele>86.9</ele>
        <time>2021-10-04T12:27:52.185Z</time>
      </trkpt>
      <trkpt lat="49.58275" lon="3.70007">
        <ele>84.83</ele>
        <time>2021-10-04T12:28:01.748Z</time>
      </trkpt>
      <trkpt lat="49.58279" lon="3.70024">
        <ele>83.36</ele>
        <time>2021-10-04T12:28:11.471Z</time>
      </trkpt>
      <trkpt lat="49.58283" lon="3.70039">
        <ele>84.3</ele>
        <time>2021-10-04T12:28:20.616Z</time>
      </trkpt>
      <trkpt lat="49.58288" lon="3.70055">
        <ele>84.06</ele>
        <time>2021-10-04T12:28:30.305Z</time>
      </trkpt>
      <trkpt lat="49.58295" lon="3.7007">
        <ele>85.04</ele>
        <time>2021-10-04T12:28:39.525Z</time>
      </trkpt>
      <trkpt lat="49.583" lon="3.70084">
        <ele>83.23</ele>
        <time>2021-10-04T12:28:49.089Z</time>
      </trkpt>
      <trkpt lat="49.58305" lon="3.70097">
        <ele>84.03</ele>
        <time>2021-10-04T12:28:58.368Z</time>
      </trkpt>
      <trkpt lat="49.58309" lon="3.70117">
        <ele>84.28</ele>
        <time>2021-10-04T12:29:08.615Z</time>
      </trkpt>
      <trkpt lat="49.58314" lon="3.70133">
        <ele>81.8</ele>
        <time>2021-10-04T12:29:18.063Z</time>
      </trkpt>
      <trkpt lat="49.5832" lon="3.70149">
        <ele>84.6</ele>
        <time>2021-10-04T12:29:27.633Z</time>
      </trkpt>
      <trkpt lat="49.58325" lon="3.70165">
        <ele>83.31</ele>
        <time>2021-10-04T12:29:37.999Z</time>
      </trkpt>
      <trkpt lat="49.58329" lon="3.70181">
        <ele>83.47</ele>
        <time>2021-10-04T12:29:47.449Z</time>
      </trkpt>
      <trkpt lat="49.58334" lon="3.70196">
        <ele>83.06</ele>
        <time>2021-10-04T12:29:56.532Z</time>
      </trkpt>
      <trkpt lat="49.58338" lon="3.70211">
        <ele>83.8</ele>
        <time>2021-10-04T12:30:05.571Z</time>
      </trkpt>
      <trkpt lat="49.58341" lon="3.70227">
        <ele>83.18</ele>
        <time>2021-10-04T12:30:14.999Z</time>
      </trkpt>
      <trkpt lat="49.58347" lon="3.70243">
        <ele>83.57</ele>
        <time>2021-10-04T12:30:24.248Z</time>
      </trkpt>
      <trkpt lat="49.58351" lon="3.70258">
        <ele>83.85</ele>
        <time>2021-10-04T12:30:33.324Z</time>
      </trkpt>
      <trkpt lat="49.58356" lon="3.7027">
        <ele>84.35</ele>
        <time>2021-10-04T12:30:42.465Z</time>
      </trkpt>
      <trkpt lat="49.5836" lon="3.70287">
        <ele>86.2</ele>
        <time>2021-10-04T12:30:51.548Z</time>
      </trkpt>
      <trkpt lat="49.58365" lon="3.70304">
        <ele>85.25</ele>
        <time>2021-10-04T12:31:01.085Z</time>
      </trkpt>
      <trkpt lat="49.5837" lon="3.70322">
        <ele>83.81</ele>
        <time>2021-10-04T12:31:10.608Z</time>
      </trkpt>
      <trkpt lat="49.58373" lon="3.7034">
        <ele>84.17</ele>
        <time>2021-10-04T12:31:20.113Z</time>
      </trkpt>
      <trkpt lat="49.58377" lon="3.70357">
        <ele>83.1</ele>
        <time>2021-10-04T12:31:29.545Z</time>
      </trkpt>
      <trkpt lat="49.58382" lon="3.70369">
        <ele>83.49</ele>
        <time>2021-10-04T12:31:39.068Z</time>
      </trkpt>
      <trkpt lat="49.58387" lon="3.70383">
        <ele>83.84</ele>
        <time>2021-10-04T12:31:48.450Z</time>
      </trkpt>
      <trkpt lat="49.58395" lon="3.70396">
        <ele>84.88</ele>
        <time>2021-10-04T12:31:57.911Z</time>
      </trkpt>
      <trkpt lat="49.58399" lon="3.70411">
        <ele>82.67</ele>
        <time>2021-10-04T12:32:06.926Z</time>
      </trkpt>
      <trkpt lat="49.58403" lon="3.70427">
        <ele>83.25</ele>
        <time>2021-10-04T12:32:16.602Z</time>
      </trkpt>
      <trkpt lat="49.58408" lon="3.7044">
        <ele>81.7</ele>
        <time>2021-10-04T12:32:25.999Z</time>
      </trkpt>
      <trkpt lat="49.58414" lon="3.70454">
        <ele>83.06</ele>
        <time>2021-10-04T12:32:35.326Z</time>
      </trkpt>
      <trkpt lat="49.58417" lon="3.70472">
        <ele>81.91</ele>
        <time>2021-10-04T12:32:44.890Z</time>
      </trkpt>
      <trkpt lat="49.5842" lon="3.7049">
        <ele>81.39</ele>
        <time>2021-10-04T12:32:54.188Z</time>
      </trkpt>
      <trkpt lat="49.58424" lon="3.70509">
        <ele>83.06</ele>
        <time>2021-10-04T12:33:03.999Z</time>
      </trkpt>
      <trkpt lat="49.5843" lon="3.70527">
        <ele>82.52</ele>
        <time>2021-10-04T12:33:13.523Z</time>
      </trkpt>
      <trkpt lat="49.58438" lon="3.70543">
        <ele>82.78</ele>
        <time>2021-10-04T12:33:22.714Z</time>
      </trkpt>
      <trkpt lat="49.58443" lon="3.7056">
        <ele>82.12</ele>
        <time>2021-10-04T12:33:31.750Z</time>
      </trkpt>
      <trkpt lat="49.58447" lon="3.7058">
        <ele>83.41</ele>
        <time>2021-10-04T12:33:41.391Z</time>
      </trkpt>
      <trkpt lat="49.58452" lon="3.70598">
        <ele>82.82</ele>
        <time>2021-10-04T12:33:50.557Z</time>
      </trkpt>
      <trkpt lat="49.58456" lon="3.70614">
        <ele>82.61</ele>
        <time>2021-10-04T12:33:59.989Z</time>
      </trkpt>
      <trkpt lat="49.58458" lon="3.70629">
        <ele>83.41</ele>
        <time>2021-10-04T12:34:09.432Z</time>
      </trkpt>
      <trkpt lat="49.58463" lon="3.70649">
        <ele>83.15</ele>
        <time>2021-10-04T12:34:19.312Z</time>
      </trkpt>
      <trkpt lat="49.58468" lon="3.70666">
        <ele>82.97</ele>
        <time>2021-10-04T12:34:28.487Z</time>
      </trkpt>
      <trkpt lat="49.58474" lon="3.70682">
        <ele>85.85</ele>
        <time>2021-10-04T12:34:37.947Z</time>
      </trkpt>
      <trkpt lat="49.5848" lon="3.70697">
        <ele>84.94</ele>
        <time>2021-10-04T12:34:47.429Z</time>
      </trkpt>
      <trkpt lat="49.58486" lon="3.70712">
        <ele>83.22</ele>
        <time>2021-10-04T12:34:56.507Z</time>
      </trkpt>
      <trkpt lat="49.58491" lon="3.70728">
        <ele>85</ele>
        <time>2021-10-04T12:35:05.626Z</time>
      </trkpt>
      <trkpt lat="49.58497" lon="3.70743">
        <ele>85.8</ele>
        <time>2021-10-04T12:35:14.729Z</time>
      </trkpt>
      <trkpt lat="49.58503" lon="3.70758">
        <ele>85.66</ele>
        <time>2021-10-04T12:35:24.284Z</time>
      </trkpt>
      <trkpt lat="49.58509" lon="3.70776">
        <ele>85.11</ele>
        <time>2021-10-04T12:35:33.908Z</time>
      </trkpt>
      <trkpt lat="49.58514" lon="3.70794">
        <ele>85.22</ele>
        <time>2021-10-04T12:35:43.452Z</time>
      </trkpt>
      <trkpt lat="49.58518" lon="3.70819">
        <ele>85.78</ele>
        <time>2021-10-04T12:35:53.428Z</time>
      </trkpt>
      <trkpt lat="49.58522" lon="3.70837">
        <ele>84.45</ele>
        <time>2021-10-04T12:36:03.067Z</time>
      </trkpt>
      <trkpt lat="49.58528" lon="3.70851">
        <ele>86.84</ele>
        <time>2021-10-04T12:36:12.229Z</time>
      </trkpt>
      <trkpt lat="49.58532" lon="3.70868">
        <ele>84.39</ele>
        <time>2021-10-04T12:36:21.512Z</time>
      </trkpt>
      <trkpt lat="49.58536" lon="3.70885">
        <ele>85.61</ele>
        <time>2021-10-04T12:36:31.010Z</time>
      </trkpt>
      <trkpt lat="49.5854" lon="3.70903">
        <ele>85.92</ele>
        <time>2021-10-04T12:36:40.468Z</time>
      </trkpt>
      <trkpt lat="49.58545" lon="3.70919">
        <ele>86.83</ele>
        <time>2021-10-04T12:36:49.550Z</time>
      </trkpt>
      <trkpt lat="49.58553" lon="3.70928">
        <ele>85.36</ele>
        <time>2021-10-04T12:36:58.934Z</time>
      </trkpt>
      <trkpt lat="49.58565" lon="3.70925">
        <ele>85.94</ele>
        <time>2021-10-04T12:37:08.491Z</time>
      </trkpt>
      <trkpt lat="49.58574" lon="3.70924">
        <ele>83.24</ele>
        <time>2021-10-04T12:37:17.492Z</time>
      </trkpt>
      <trkpt lat="49.58585" lon="3.70923">
        <ele>83.81</ele>
        <time>2021-10-04T12:37:26.999Z</time>
      </trkpt>
      <trkpt lat="49.58597" lon="3.7092">
        <ele>84.47</ele>
        <time>2021-10-04T12:37:36.408Z</time>
      </trkpt>
      <trkpt lat="49.58605" lon="3.70919">
        <ele>85.34</ele>
        <time>2021-10-04T12:37:45.999Z</time>
      </trkpt>
      <trkpt lat="49.58605" lon="3.70921">
        <ele>84.39</ele>
        <time>2021-10-04T12:37:55.999Z</time>
      </trkpt>
      <trkpt lat="49.586" lon="3.70915">
        <ele>86.13</ele>
        <time>2021-10-04T12:38:36.999Z</time>
      </trkpt>
      <trkpt lat="49.58599" lon="3.70913">
        <ele>84.58</ele>
        <time>2021-10-04T12:38:46.999Z</time>
      </trkpt>
      <trkpt lat="49.586" lon="3.70912">
        <ele>86.02</ele>
        <time>2021-10-04T12:38:58.999Z</time>
      </trkpt>
      <trkpt lat="49.58601" lon="3.70909">
        <ele>86.14</ele>
        <time>2021-10-04T12:39:08.999Z</time>
      </trkpt>
      <trkpt lat="49.58599" lon="3.70902">
        <ele>87.24</ele>
        <time>2021-10-04T12:39:18.406Z</time>
      </trkpt>
      <trkpt lat="49.58597" lon="3.70907">
        <ele>88.18</ele>
        <time>2021-10-04T12:39:27.999Z</time>
      </trkpt>
      <trkpt lat="49.58595" lon="3.70909">
        <ele>86.25</ele>
        <time>2021-10-04T12:39:37.999Z</time>
      </trkpt>
      <trkpt lat="49.58592" lon="3.70909">
        <ele>86.62</ele>
        <time>2021-10-04T12:39:47.130Z</time>
      </trkpt>
      <trkpt lat="49.58593" lon="3.70917">
        <ele>88.49</ele>
        <time>2021-10-04T12:39:56.999Z</time>
      </trkpt>
      <trkpt lat="49.58593" lon="3.70918">
        <ele>87.92</ele>
        <time>2021-10-04T12:40:06.999Z</time>
      </trkpt>
      <trkpt lat="49.58594" lon="3.70922">
        <ele>83.62</ele>
        <time>2021-10-04T12:40:16.999Z</time>
      </trkpt>
      <trkpt lat="49.58594" lon="3.70927">
        <ele>87.44</ele>
        <time>2021-10-04T12:40:26.999Z</time>
      </trkpt>
      <trkpt lat="49.58596" lon="3.70927">
        <ele>87.37</ele>
        <time>2021-10-04T12:40:36.999Z</time>
      </trkpt>
      <trkpt lat="49.58597" lon="3.70928">
        <ele>87.44</ele>
        <time>2021-10-04T12:40:46.999Z</time>
      </trkpt>
      <trkpt lat="49.586" lon="3.70927">
        <ele>87.23</ele>
        <time>2021-10-04T12:40:56.270Z</time>
      </trkpt>
      <trkpt lat="49.58603" lon="3.70917">
        <ele>86.94</ele>
        <time>2021-10-04T12:41:05.999Z</time>
      </trkpt>
      <trkpt lat="49.58602" lon="3.70913">
        <ele>87.85</ele>
        <time>2021-10-04T12:41:15.999Z</time>
      </trkpt>
      <trkpt lat="49.58603" lon="3.70913">
        <ele>88.71</ele>
        <time>2021-10-04T12:41:26.999Z</time>
      </trkpt>
      <trkpt lat="49.58602" lon="3.70915">
        <ele>92.07</ele>
        <time>2021-10-04T12:43:19.999Z</time>
      </trkpt>
      <trkpt lat="49.58601" lon="3.70919">
        <ele>90.71</ele>
        <time>2021-10-04T12:43:29.999Z</time>
      </trkpt>
      <trkpt lat="49.58599" lon="3.70917">
        <ele>93.58</ele>
        <time>2021-10-04T12:47:42.999Z</time>
      </trkpt>
      <trkpt lat="49.586" lon="3.70916">
        <ele>91.84</ele>
        <time>2021-10-04T12:47:52.999Z</time>
      </trkpt>
      <trkpt lat="49.58601" lon="3.7092">
        <ele>91.55</ele>
        <time>2021-10-04T12:48:02.999Z</time>
      </trkpt>
      <trkpt lat="49.58596" lon="3.70927">
        <ele>89.9</ele>
        <time>2021-10-04T12:48:12.999Z</time>
      </trkpt>
      <trkpt lat="49.58586" lon="3.70931">
        <ele>91.07</ele>
        <time>2021-10-04T12:48:22.999Z</time>
      </trkpt>
      <trkpt lat="49.58577" lon="3.70939">
        <ele>92.91</ele>
        <time>2021-10-04T12:48:32.456Z</time>
      </trkpt>
      <trkpt lat="49.58571" lon="3.70945">
        <ele>91.4</ele>
        <time>2021-10-04T12:48:41.462Z</time>
      </trkpt>
      <trkpt lat="49.58573" lon="3.70952">
        <ele>92.66</ele>
        <time>2021-10-04T12:48:50.999Z</time>
      </trkpt>
      <trkpt lat="49.58583" lon="3.70961">
        <ele>91.16</ele>
        <time>2021-10-04T12:49:00.587Z</time>
      </trkpt>
      <trkpt lat="49.58593" lon="3.70968">
        <ele>90.5</ele>
        <time>2021-10-04T12:49:09.999Z</time>
      </trkpt>
      <trkpt lat="49.58604" lon="3.70975">
        <ele>88.76</ele>
        <time>2021-10-04T12:49:19.999Z</time>
      </trkpt>
      <trkpt lat="49.58615" lon="3.70984">
        <ele>82.48</ele>
        <time>2021-10-04T12:49:29.289Z</time>
      </trkpt>
      <trkpt lat="49.58621" lon="3.70992">
        <ele>80.39</ele>
        <time>2021-10-04T12:49:38.313Z</time>
      </trkpt>
      <trkpt lat="49.58625" lon="3.71006">
        <ele>76.88</ele>
        <time>2021-10-04T12:49:48.324Z</time>
      </trkpt>
      <trkpt lat="49.58628" lon="3.71017">
        <ele>73.89</ele>
        <time>2021-10-04T12:49:57.390Z</time>
      </trkpt>
      <trkpt lat="49.58629" lon="3.71034">
        <ele>72.18</ele>
        <time>2021-10-04T12:50:06.999Z</time>
      </trkpt>
      <trkpt lat="49.58632" lon="3.71056">
        <ele>70.87</ele>
        <time>2021-10-04T12:50:16.999Z</time>
      </trkpt>
      <trkpt lat="49.58633" lon="3.7107">
        <ele>70.38</ele>
        <time>2021-10-04T12:50:26.999Z</time>
      </trkpt>
      <trkpt lat="49.58635" lon="3.71083">
        <ele>71.46</ele>
        <time>2021-10-04T12:50:36.011Z</time>
      </trkpt>
      <trkpt lat="49.58644" lon="3.71089">
        <ele>70.47</ele>
        <time>2021-10-04T12:50:45.757Z</time>
      </trkpt>
      <trkpt lat="49.58651" lon="3.71099">
        <ele>71.98</ele>
        <time>2021-10-04T12:50:55.005Z</time>
      </trkpt>
      <trkpt lat="49.58657" lon="3.71118">
        <ele>71.57</ele>
        <time>2021-10-04T12:51:04.303Z</time>
      </trkpt>
      <trkpt lat="49.58664" lon="3.71131">
        <ele>72.32</ele>
        <time>2021-10-04T12:51:13.348Z</time>
      </trkpt>
      <trkpt lat="49.58666" lon="3.7115">
        <ele>71.56</ele>
        <time>2021-10-04T12:51:22.999Z</time>
      </trkpt>
      <trkpt lat="49.58669" lon="3.71169">
        <ele>69.43</ele>
        <time>2021-10-04T12:51:32.466Z</time>
      </trkpt>
      <trkpt lat="49.58679" lon="3.71179">
        <ele>69.83</ele>
        <time>2021-10-04T12:51:41.610Z</time>
      </trkpt>
      <trkpt lat="49.58692" lon="3.71187">
        <ele>71.13</ele>
        <time>2021-10-04T12:51:51.384Z</time>
      </trkpt>
      <trkpt lat="49.58701" lon="3.71195">
        <ele>67.04</ele>
        <time>2021-10-04T12:52:00.873Z</time>
      </trkpt>
      <trkpt lat="49.58702" lon="3.7121">
        <ele>63.03</ele>
        <time>2021-10-04T12:52:10.145Z</time>
      </trkpt>
      <trkpt lat="49.58698" lon="3.71225">
        <ele>61.82</ele>
        <time>2021-10-04T12:52:19.433Z</time>
      </trkpt>
      <trkpt lat="49.58708" lon="3.71235">
        <ele>58.96</ele>
        <time>2021-10-04T12:52:29.587Z</time>
      </trkpt>
      <trkpt lat="49.5872" lon="3.71245">
        <ele>58</ele>
        <time>2021-10-04T12:52:38.728Z</time>
      </trkpt>
      <trkpt lat="49.58729" lon="3.71249">
        <ele>53.37</ele>
        <time>2021-10-04T12:52:48.147Z</time>
      </trkpt>
      <trkpt lat="49.58731" lon="3.71263">
        <ele>50.16</ele>
        <time>2021-10-04T12:52:57.432Z</time>
      </trkpt>
      <trkpt lat="49.58732" lon="3.71285">
        <ele>51.4</ele>
        <time>2021-10-04T12:53:06.629Z</time>
      </trkpt>
      <trkpt lat="49.5873" lon="3.71306">
        <ele>51.78</ele>
        <time>2021-10-04T12:53:16.089Z</time>
      </trkpt>
      <trkpt lat="49.58731" lon="3.71327">
        <ele>55.45</ele>
        <time>2021-10-04T12:53:25.291Z</time>
      </trkpt>
      <trkpt lat="49.58732" lon="3.71344">
        <ele>59.04</ele>
        <time>2021-10-04T12:53:34.525Z</time>
      </trkpt>
      <trkpt lat="49.58735" lon="3.71364">
        <ele>59.78</ele>
        <time>2021-10-04T12:53:44.549Z</time>
      </trkpt>
      <trkpt lat="49.58747" lon="3.7138">
        <ele>61.57</ele>
        <time>2021-10-04T12:53:53.999Z</time>
      </trkpt>
      <trkpt lat="49.58756" lon="3.71395">
        <ele>58.55</ele>
        <time>2021-10-04T12:54:04.049Z</time>
      </trkpt>
      <trkpt lat="49.58766" lon="3.71407">
        <ele>60.75</ele>
        <time>2021-10-04T12:54:13.631Z</time>
      </trkpt>
      <trkpt lat="49.58778" lon="3.71413">
        <ele>56.41</ele>
        <time>2021-10-04T12:54:23.606Z</time>
      </trkpt>
      <trkpt lat="49.58787" lon="3.7142">
        <ele>56.58</ele>
        <time>2021-10-04T12:54:33.551Z</time>
      </trkpt>
      <trkpt lat="49.58795" lon="3.7143">
        <ele>52.16</ele>
        <time>2021-10-04T12:54:43.312Z</time>
      </trkpt>
      <trkpt lat="49.58797" lon="3.71449">
        <ele>52.04</ele>
        <time>2021-10-04T12:54:52.345Z</time>
      </trkpt>
      <trkpt lat="49.58794" lon="3.71473">
        <ele>48.42</ele>
        <time>2021-10-04T12:55:01.999Z</time>
      </trkpt>
      <trkpt lat="49.58796" lon="3.71497">
        <ele>52.92</ele>
        <time>2021-10-04T12:55:11.046Z</time>
      </trkpt>
      <trkpt lat="49.58797" lon="3.71511">
        <ele>54.1</ele>
        <time>2021-10-04T12:55:20.469Z</time>
      </trkpt>
      <trkpt lat="49.58799" lon="3.7152">
        <ele>56</ele>
        <time>2021-10-04T12:55:29.999Z</time>
      </trkpt>
      <trkpt lat="49.58804" lon="3.71528">
        <ele>54.14</ele>
        <time>2021-10-04T12:55:39.999Z</time>
      </trkpt>
      <trkpt lat="49.58807" lon="3.71545">
        <ele>58.79</ele>
        <time>2021-10-04T12:55:49.284Z</time>
      </trkpt>
      <trkpt lat="49.58811" lon="3.7156">
        <ele>60.06</ele>
        <time>2021-10-04T12:55:58.529Z</time>
      </trkpt>
      <trkpt lat="49.58818" lon="3.71574">
        <ele>61.06</ele>
        <time>2021-10-04T12:56:07.999Z</time>
      </trkpt>
      <trkpt lat="49.58827" lon="3.71587">
        <ele>62.41</ele>
        <time>2021-10-04T12:56:17.289Z</time>
      </trkpt>
      <trkpt lat="49.58837" lon="3.71597">
        <ele>59.73</ele>
        <time>2021-10-04T12:56:27.052Z</time>
      </trkpt>
      <trkpt lat="49.58847" lon="3.71602">
        <ele>54.55</ele>
        <time>2021-10-04T12:56:36.902Z</time>
      </trkpt>
      <trkpt lat="49.58855" lon="3.71606">
        <ele>49.09</ele>
        <time>2021-10-04T12:56:46.067Z</time>
      </trkpt>
      <trkpt lat="49.5886" lon="3.71613">
        <ele>47.31</ele>
        <time>2021-10-04T12:56:55.464Z</time>
      </trkpt>
      <trkpt lat="49.58861" lon="3.71622">
        <ele>45.75</ele>
        <time>2021-10-04T12:57:04.867Z</time>
      </trkpt>
      <trkpt lat="49.58864" lon="3.71636">
        <ele>47.54</ele>
        <time>2021-10-04T12:57:14.999Z</time>
      </trkpt>
      <trkpt lat="49.58863" lon="3.71662">
        <ele>46.93</ele>
        <time>2021-10-04T12:57:24.463Z</time>
      </trkpt>
      <trkpt lat="49.58862" lon="3.71685">
        <ele>53.38</ele>
        <time>2021-10-04T12:57:33.828Z</time>
      </trkpt>
      <trkpt lat="49.58865" lon="3.71705">
        <ele>55.03</ele>
        <time>2021-10-04T12:57:43.433Z</time>
      </trkpt>
      <trkpt lat="49.58864" lon="3.71721">
        <ele>63.22</ele>
        <time>2021-10-04T12:57:52.791Z</time>
      </trkpt>
      <trkpt lat="49.58864" lon="3.71732">
        <ele>61.97</ele>
        <time>2021-10-04T12:58:01.999Z</time>
      </trkpt>
      <trkpt lat="49.58866" lon="3.71745">
        <ele>63.66</ele>
        <time>2021-10-04T12:58:11.345Z</time>
      </trkpt>
      <trkpt lat="49.58869" lon="3.71751">
        <ele>65.87</ele>
        <time>2021-10-04T12:58:20.469Z</time>
      </trkpt>
      <trkpt lat="49.58877" lon="3.71764">
        <ele>67.63</ele>
        <time>2021-10-04T12:58:30.343Z</time>
      </trkpt>
      <trkpt lat="49.58886" lon="3.71769">
        <ele>67.3</ele>
        <time>2021-10-04T12:58:39.999Z</time>
      </trkpt>
      <trkpt lat="49.58888" lon="3.71778">
        <ele>71.43</ele>
        <time>2021-10-04T12:58:49.111Z</time>
      </trkpt>
      <trkpt lat="49.58889" lon="3.71807">
        <ele>77.23</ele>
        <time>2021-10-04T12:58:58.483Z</time>
      </trkpt>
      <trkpt lat="49.58891" lon="3.71831">
        <ele>76.45</ele>
        <time>2021-10-04T12:59:08.330Z</time>
      </trkpt>
      <trkpt lat="49.58898" lon="3.71843">
        <ele>79.1</ele>
        <time>2021-10-04T12:59:18.567Z</time>
      </trkpt>
      <trkpt lat="49.58905" lon="3.71847">
        <ele>81.31</ele>
        <time>2021-10-04T12:59:28.999Z</time>
      </trkpt>
      <trkpt lat="49.58913" lon="3.71857">
        <ele>81.73</ele>
        <time>2021-10-04T12:59:38.982Z</time>
      </trkpt>
      <trkpt lat="49.58923" lon="3.71866">
        <ele>82.93</ele>
        <time>2021-10-04T12:59:48.430Z</time>
      </trkpt>
      <trkpt lat="49.58933" lon="3.71875">
        <ele>71.24</ele>
        <time>2021-10-04T12:59:58.546Z</time>
      </trkpt>
      <trkpt lat="49.58937" lon="3.71888">
        <ele>74.6</ele>
        <time>2021-10-04T13:00:08.084Z</time>
      </trkpt>
      <trkpt lat="49.58938" lon="3.71909">
        <ele>74.71</ele>
        <time>2021-10-04T13:00:17.450Z</time>
      </trkpt>
      <trkpt lat="49.58945" lon="3.71929">
        <ele>76.34</ele>
        <time>2021-10-04T13:00:26.973Z</time>
      </trkpt>
      <trkpt lat="49.58951" lon="3.71942">
        <ele>72.86</ele>
        <time>2021-10-04T13:00:36.633Z</time>
      </trkpt>
      <trkpt lat="49.5896" lon="3.71947">
        <ele>68.83</ele>
        <time>2021-10-04T13:00:46.109Z</time>
      </trkpt>
      <trkpt lat="49.58968" lon="3.71955">
        <ele>67.42</ele>
        <time>2021-10-04T13:00:55.569Z</time>
      </trkpt>
      <trkpt lat="49.58968" lon="3.71979">
        <ele>68.74</ele>
        <time>2021-10-04T13:01:04.957Z</time>
      </trkpt>
      <trkpt lat="49.58969" lon="3.72005">
        <ele>68.75</ele>
        <time>2021-10-04T13:01:14.049Z</time>
      </trkpt>
      <trkpt lat="49.58974" lon="3.72017">
        <ele>71.46</ele>
        <time>2021-10-04T13:01:23.999Z</time>
      </trkpt>
      <trkpt lat="49.5898" lon="3.72023">
        <ele>73.34</ele>
        <time>2021-10-04T13:01:33.149Z</time>
      </trkpt>
      <trkpt lat="49.58987" lon="3.72031">
        <ele>70.95</ele>
        <time>2021-10-04T13:01:42.436Z</time>
      </trkpt>
      <trkpt lat="49.58992" lon="3.72048">
        <ele>67.81</ele>
        <time>2021-10-04T13:01:51.553Z</time>
      </trkpt>
      <trkpt lat="49.58997" lon="3.72069">
        <ele>69.01</ele>
        <time>2021-10-04T13:02:01.449Z</time>
      </trkpt>
      <trkpt lat="49.59001" lon="3.72085">
        <ele>67.52</ele>
        <time>2021-10-04T13:02:10.999Z</time>
      </trkpt>
      <trkpt lat="49.59007" lon="3.72096">
        <ele>71.78</ele>
        <time>2021-10-04T13:02:20.597Z</time>
      </trkpt>
      <trkpt lat="49.59014" lon="3.72098">
        <ele>71.03</ele>
        <time>2021-10-04T13:02:29.791Z</time>
      </trkpt>
      <trkpt lat="49.59019" lon="3.7211">
        <ele>66.55</ele>
        <time>2021-10-04T13:02:38.999Z</time>
      </trkpt>
      <trkpt lat="49.59028" lon="3.72124">
        <ele>62.42</ele>
        <time>2021-10-04T13:02:48.535Z</time>
      </trkpt>
      <trkpt lat="49.59028" lon="3.72146">
        <ele>65.26</ele>
        <time>2021-10-04T13:02:57.999Z</time>
      </trkpt>
      <trkpt lat="49.59027" lon="3.72166">
        <ele>68.89</ele>
        <time>2021-10-04T13:03:07.315Z</time>
      </trkpt>
      <trkpt lat="49.59029" lon="3.72177">
        <ele>70.5</ele>
        <time>2021-10-04T13:03:16.429Z</time>
      </trkpt>
      <trkpt lat="49.59034" lon="3.72186">
        <ele>71.07</ele>
        <time>2021-10-04T13:03:25.758Z</time>
      </trkpt>
      <trkpt lat="49.59041" lon="3.72205">
        <ele>74.25</ele>
        <time>2021-10-04T13:03:35.658Z</time>
      </trkpt>
      <trkpt lat="49.59046" lon="3.72222">
        <ele>75.05</ele>
        <time>2021-10-04T13:03:44.999Z</time>
      </trkpt>
      <trkpt lat="49.59057" lon="3.72235">
        <ele>73.3</ele>
        <time>2021-10-04T13:03:54.296Z</time>
      </trkpt>
      <trkpt lat="49.59059" lon="3.72247">
        <ele>75.03</ele>
        <time>2021-10-04T13:04:03.999Z</time>
      </trkpt>
      <trkpt lat="49.59059" lon="3.72259">
        <ele>75.53</ele>
        <time>2021-10-04T13:04:13.736Z</time>
      </trkpt>
      <trkpt lat="49.59062" lon="3.72271">
        <ele>79.09</ele>
        <time>2021-10-04T13:04:23.675Z</time>
      </trkpt>
      <trkpt lat="49.59064" lon="3.72289">
        <ele>78.36</ele>
        <time>2021-10-04T13:04:33.253Z</time>
      </trkpt>
      <trkpt lat="49.59071" lon="3.72305">
        <ele>78.17</ele>
        <time>2021-10-04T13:04:42.681Z</time>
      </trkpt>
      <trkpt lat="49.59083" lon="3.72315">
        <ele>77.13</ele>
        <time>2021-10-04T13:04:51.692Z</time>
      </trkpt>
      <trkpt lat="49.59095" lon="3.72319">
        <ele>71.24</ele>
        <time>2021-10-04T13:05:01.453Z</time>
      </trkpt>
      <trkpt lat="49.59103" lon="3.72321">
        <ele>70.29</ele>
        <time>2021-10-04T13:05:11.448Z</time>
      </trkpt>
      <trkpt lat="49.59104" lon="3.72334">
        <ele>67.16</ele>
        <time>2021-10-04T13:05:20.633Z</time>
      </trkpt>
      <trkpt lat="49.59101" lon="3.72367">
        <ele>62.13</ele>
        <time>2021-10-04T13:05:29.999Z</time>
      </trkpt>
      <trkpt lat="49.59104" lon="3.72385">
        <ele>65.22</ele>
        <time>2021-10-04T13:05:39.607Z</time>
      </trkpt>
      <trkpt lat="49.59109" lon="3.72401">
        <ele>64.32</ele>
        <time>2021-10-04T13:05:49.132Z</time>
      </trkpt>
      <trkpt lat="49.59117" lon="3.7241">
        <ele>69.49</ele>
        <time>2021-10-04T13:05:58.635Z</time>
      </trkpt>
      <trkpt lat="49.59118" lon="3.72433">
        <ele>71.94</ele>
        <time>2021-10-04T13:06:07.820Z</time>
      </trkpt>
      <trkpt lat="49.59119" lon="3.72454">
        <ele>73.45</ele>
        <time>2021-10-04T13:06:17.999Z</time>
      </trkpt>
      <trkpt lat="49.59133" lon="3.72458">
        <ele>73.14</ele>
        <time>2021-10-04T13:06:27.732Z</time>
      </trkpt>
      <trkpt lat="49.59139" lon="3.72467">
        <ele>70.41</ele>
        <time>2021-10-04T13:06:37.999Z</time>
      </trkpt>
      <trkpt lat="49.59141" lon="3.72467">
        <ele>68.87</ele>
        <time>2021-10-04T13:06:47.269Z</time>
      </trkpt>
      <trkpt lat="49.59149" lon="3.72477">
        <ele>69.29</ele>
        <time>2021-10-04T13:06:56.575Z</time>
      </trkpt>
      <trkpt lat="49.59155" lon="3.72492">
        <ele>65.32</ele>
        <time>2021-10-04T13:07:06.646Z</time>
      </trkpt>
      <trkpt lat="49.59165" lon="3.72501">
        <ele>64.07</ele>
        <time>2021-10-04T13:07:15.751Z</time>
      </trkpt>
      <trkpt lat="49.59171" lon="3.72503">
        <ele>61.39</ele>
        <time>2021-10-04T13:07:25.092Z</time>
      </trkpt>
      <trkpt lat="49.59174" lon="3.72521">
        <ele>59.57</ele>
        <time>2021-10-04T13:07:35.999Z</time>
      </trkpt>
      <trkpt lat="49.59183" lon="3.72533">
        <ele>56.41</ele>
        <time>2021-10-04T13:07:45.693Z</time>
      </trkpt>
      <trkpt lat="49.5919" lon="3.72542">
        <ele>53.93</ele>
        <time>2021-10-04T13:07:55.576Z</time>
      </trkpt>
      <trkpt lat="49.59195" lon="3.72554">
        <ele>57.63</ele>
        <time>2021-10-04T13:08:05.132Z</time>
      </trkpt>
      <trkpt lat="49.59196" lon="3.72575">
        <ele>58.96</ele>
        <time>2021-10-04T13:08:14.430Z</time>
      </trkpt>
      <trkpt lat="49.59199" lon="3.7259">
        <ele>59.92</ele>
        <time>2021-10-04T13:08:23.999Z</time>
      </trkpt>
      <trkpt lat="49.5921" lon="3.72589">
        <ele>64.58</ele>
        <time>2021-10-04T13:08:33.999Z</time>
      </trkpt>
      <trkpt lat="49.5921" lon="3.72584">
        <ele>67.6</ele>
        <time>2021-10-04T13:08:43.999Z</time>
      </trkpt>
      <trkpt lat="49.59213" lon="3.72588">
        <ele>66.73</ele>
        <time>2021-10-04T13:08:53.255Z</time>
      </trkpt>
      <trkpt lat="49.59222" lon="3.72585">
        <ele>68.47</ele>
        <time>2021-10-04T13:09:02.669Z</time>
      </trkpt>
      <trkpt lat="49.59227" lon="3.72584">
        <ele>69.3</ele>
        <time>2021-10-04T13:09:12.395Z</time>
      </trkpt>
      <trkpt lat="49.59229" lon="3.72584">
        <ele>68.33</ele>
        <time>2021-10-04T13:09:21.999Z</time>
      </trkpt>
      <trkpt lat="49.59226" lon="3.72585">
        <ele>74.72</ele>
        <time>2021-10-04T13:09:31.999Z</time>
      </trkpt>
      <trkpt lat="49.59225" lon="3.72585">
        <ele>76.01</ele>
        <time>2021-10-04T13:09:41.999Z</time>
      </trkpt>
      <trkpt lat="49.59226" lon="3.72584">
        <ele>80.01</ele>
        <time>2021-10-04T13:10:04.999Z</time>
      </trkpt>
      <trkpt lat="49.59226" lon="3.72595">
        <ele>78.3</ele>
        <time>2021-10-04T13:10:14.999Z</time>
      </trkpt>
      <trkpt lat="49.59227" lon="3.72593">
        <ele>80.03</ele>
        <time>2021-10-04T13:10:24.753Z</time>
      </trkpt>
      <trkpt lat="49.59226" lon="3.72599">
        <ele>81.22</ele>
        <time>2021-10-04T13:10:34.217Z</time>
      </trkpt>
      <trkpt lat="49.59237" lon="3.72608">
        <ele>82.57</ele>
        <time>2021-10-04T13:10:43.474Z</time>
      </trkpt>
      <trkpt lat="49.59248" lon="3.72618">
        <ele>86.64</ele>
        <time>2021-10-04T13:10:52.999Z</time>
      </trkpt>
      <trkpt lat="49.5925" lon="3.72622">
        <ele>83.01</ele>
        <time>2021-10-04T13:11:02.550Z</time>
      </trkpt>
      <trkpt lat="49.59253" lon="3.72626">
        <ele>87.59</ele>
        <time>2021-10-04T13:11:11.568Z</time>
      </trkpt>
      <trkpt lat="49.59254" lon="3.72626">
        <ele>85.1</ele>
        <time>2021-10-04T13:11:21.933Z</time>
      </trkpt>
      <trkpt lat="49.59263" lon="3.7263">
        <ele>81.72</ele>
        <time>2021-10-04T13:11:31.999Z</time>
      </trkpt>
      <trkpt lat="49.59272" lon="3.72634">
        <ele>80.44</ele>
        <time>2021-10-04T13:11:41.511Z</time>
      </trkpt>
      <trkpt lat="49.59273" lon="3.72648">
        <ele>72.49</ele>
        <time>2021-10-04T13:11:50.817Z</time>
      </trkpt>
      <trkpt lat="49.59262" lon="3.72678">
        <ele>70.05</ele>
        <time>2021-10-04T13:12:00.081Z</time>
      </trkpt>
      <trkpt lat="49.59244" lon="3.727">
        <ele>68.21</ele>
        <time>2021-10-04T13:12:09.999Z</time>
      </trkpt>
      <trkpt lat="49.59232" lon="3.72713">
        <ele>70.67</ele>
        <time>2021-10-04T13:12:19.416Z</time>
      </trkpt>
      <trkpt lat="49.59223" lon="3.72732">
        <ele>75.85</ele>
        <time>2021-10-04T13:12:28.608Z</time>
      </trkpt>
      <trkpt lat="49.59215" lon="3.72748">
        <ele>83.9</ele>
        <time>2021-10-04T13:12:38.176Z</time>
      </trkpt>
      <trkpt lat="49.59222" lon="3.72766">
        <ele>88.06</ele>
        <time>2021-10-04T13:12:47.390Z</time>
      </trkpt>
      <trkpt lat="49.59233" lon="3.72783">
        <ele>90.55</ele>
        <time>2021-10-04T13:12:56.753Z</time>
      </trkpt>
      <trkpt lat="49.59242" lon="3.72796">
        <ele>93.58</ele>
        <time>2021-10-04T13:13:05.892Z</time>
      </trkpt>
      <trkpt lat="49.59247" lon="3.72808">
        <ele>96.25</ele>
        <time>2021-10-04T13:13:15.216Z</time>
      </trkpt>
      <trkpt lat="49.59247" lon="3.72827">
        <ele>96.97</ele>
        <time>2021-10-04T13:13:24.655Z</time>
      </trkpt>
      <trkpt lat="49.59248" lon="3.72845">
        <ele>99.29</ele>
        <time>2021-10-04T13:13:34.999Z</time>
      </trkpt>
      <trkpt lat="49.59255" lon="3.72862">
        <ele>100.87</ele>
        <time>2021-10-04T13:13:44.419Z</time>
      </trkpt>
      <trkpt lat="49.59265" lon="3.72872">
        <ele>95.88</ele>
        <time>2021-10-04T13:13:53.696Z</time>
      </trkpt>
      <trkpt lat="49.59274" lon="3.72881">
        <ele>97.75</ele>
        <time>2021-10-04T13:14:03.017Z</time>
      </trkpt>
      <trkpt lat="49.59276" lon="3.72897">
        <ele>99.76</ele>
        <time>2021-10-04T13:14:12.627Z</time>
      </trkpt>
      <trkpt lat="49.59269" lon="3.72912">
        <ele>100.8</ele>
        <time>2021-10-04T13:14:22.754Z</time>
      </trkpt>
      <trkpt lat="49.59259" lon="3.72925">
        <ele>103.1</ele>
        <time>2021-10-04T13:14:31.935Z</time>
      </trkpt>
      <trkpt lat="49.5925" lon="3.72939">
        <ele>104.01</ele>
        <time>2021-10-04T13:14:41.547Z</time>
      </trkpt>
      <trkpt lat="49.59243" lon="3.72952">
        <ele>102.46</ele>
        <time>2021-10-04T13:14:50.993Z</time>
      </trkpt>
      <trkpt lat="49.59238" lon="3.72963">
        <ele>103.54</ele>
        <time>2021-10-04T13:15:00.378Z</time>
      </trkpt>
      <trkpt lat="49.59235" lon="3.72977">
        <ele>102.81</ele>
        <time>2021-10-04T13:15:09.610Z</time>
      </trkpt>
      <trkpt lat="49.59231" lon="3.72992">
        <ele>105.83</ele>
        <time>2021-10-04T13:15:19.535Z</time>
      </trkpt>
      <trkpt lat="49.59228" lon="3.73007">
        <ele>105.26</ele>
        <time>2021-10-04T13:15:29.501Z</time>
      </trkpt>
      <trkpt lat="49.59226" lon="3.73021">
        <ele>105</ele>
        <time>2021-10-04T13:15:38.733Z</time>
      </trkpt>
      <trkpt lat="49.5922" lon="3.73033">
        <ele>108.16</ele>
        <time>2021-10-04T13:15:48.637Z</time>
      </trkpt>
      <trkpt lat="49.59214" lon="3.73047">
        <ele>109.64</ele>
        <time>2021-10-04T13:15:58.610Z</time>
      </trkpt>
      <trkpt lat="49.59208" lon="3.73065">
        <ele>109.03</ele>
        <time>2021-10-04T13:16:08.617Z</time>
      </trkpt>
      <trkpt lat="49.59203" lon="3.73078">
        <ele>108.74</ele>
        <time>2021-10-04T13:16:18.797Z</time>
      </trkpt>
      <trkpt lat="49.59198" lon="3.73088">
        <ele>109.45</ele>
        <time>2021-10-04T13:16:28.999Z</time>
      </trkpt>
      <trkpt lat="49.59193" lon="3.73101">
        <ele>109.32</ele>
        <time>2021-10-04T13:16:38.767Z</time>
      </trkpt>
      <trkpt lat="49.59189" lon="3.73116">
        <ele>111.92</ele>
        <time>2021-10-04T13:16:48.414Z</time>
      </trkpt>
      <trkpt lat="49.59187" lon="3.73132">
        <ele>110.02</ele>
        <time>2021-10-04T13:16:57.488Z</time>
      </trkpt>
      <trkpt lat="49.59182" lon="3.73147">
        <ele>111.51</ele>
        <time>2021-10-04T13:17:06.999Z</time>
      </trkpt>
      <trkpt lat="49.59171" lon="3.73155">
        <ele>111.44</ele>
        <time>2021-10-04T13:17:16.552Z</time>
      </trkpt>
      <trkpt lat="49.59161" lon="3.73159">
        <ele>110.65</ele>
        <time>2021-10-04T13:17:25.999Z</time>
      </trkpt>
      <trkpt lat="49.59153" lon="3.73169">
        <ele>110.3</ele>
        <time>2021-10-04T13:17:35.999Z</time>
      </trkpt>
      <trkpt lat="49.59144" lon="3.73181">
        <ele>110.18</ele>
        <time>2021-10-04T13:17:45.999Z</time>
      </trkpt>
      <trkpt lat="49.59137" lon="3.73189">
        <ele>109.37</ele>
        <time>2021-10-04T13:17:55.434Z</time>
      </trkpt>
      <trkpt lat="49.59129" lon="3.73196">
        <ele>108.54</ele>
        <time>2021-10-04T13:18:04.777Z</time>
      </trkpt>
      <trkpt lat="49.59121" lon="3.73197">
        <ele>107.88</ele>
        <time>2021-10-04T13:18:13.999Z</time>
      </trkpt>
      <trkpt lat="49.59112" lon="3.73202">
        <ele>105.16</ele>
        <time>2021-10-04T13:18:23.030Z</time>
      </trkpt>
      <trkpt lat="49.59103" lon="3.73205">
        <ele>106.26</ele>
        <time>2021-10-04T13:18:32.296Z</time>
      </trkpt>
      <trkpt lat="49.59095" lon="3.73211">
        <ele>108.76</ele>
        <time>2021-10-04T13:18:41.999Z</time>
      </trkpt>
      <trkpt lat="49.59088" lon="3.73218">
        <ele>109.79</ele>
        <time>2021-10-04T13:18:51.150Z</time>
      </trkpt>
      <trkpt lat="49.5908" lon="3.73224">
        <ele>112.17</ele>
        <time>2021-10-04T13:19:00.416Z</time>
      </trkpt>
      <trkpt lat="49.59072" lon="3.7323">
        <ele>112.88</ele>
        <time>2021-10-04T13:19:09.757Z</time>
      </trkpt>
      <trkpt lat="49.5906" lon="3.73234">
        <ele>111.79</ele>
        <time>2021-10-04T13:19:19.088Z</time>
      </trkpt>
      <trkpt lat="49.59049" lon="3.73239">
        <ele>110.16</ele>
        <time>2021-10-04T13:19:28.537Z</time>
      </trkpt>
      <trkpt lat="49.5904" lon="3.73247">
        <ele>109.43</ele>
        <time>2021-10-04T13:19:37.770Z</time>
      </trkpt>
      <trkpt lat="49.59029" lon="3.73259">
        <ele>111</ele>
        <time>2021-10-04T13:19:47.513Z</time>
      </trkpt>
      <trkpt lat="49.5902" lon="3.73266">
        <ele>110.12</ele>
        <time>2021-10-04T13:19:56.698Z</time>
      </trkpt>
      <trkpt lat="49.59012" lon="3.73271">
        <ele>107.92</ele>
        <time>2021-10-04T13:20:06.151Z</time>
      </trkpt>
      <trkpt lat="49.59001" lon="3.73278">
        <ele>111.37</ele>
        <time>2021-10-04T13:20:15.238Z</time>
      </trkpt>
      <trkpt lat="49.5899" lon="3.73282">
        <ele>109.12</ele>
        <time>2021-10-04T13:20:25.093Z</time>
      </trkpt>
      <trkpt lat="49.58979" lon="3.73288">
        <ele>110.06</ele>
        <time>2021-10-04T13:20:34.448Z</time>
      </trkpt>
      <trkpt lat="49.58967" lon="3.73292">
        <ele>109.81</ele>
        <time>2021-10-04T13:20:43.537Z</time>
      </trkpt>
      <trkpt lat="49.58958" lon="3.73299">
        <ele>109.64</ele>
        <time>2021-10-04T13:20:52.550Z</time>
      </trkpt>
      <trkpt lat="49.58952" lon="3.73305">
        <ele>111.82</ele>
        <time>2021-10-04T13:21:02.776Z</time>
      </trkpt>
      <trkpt lat="49.58945" lon="3.7331">
        <ele>108.46</ele>
        <time>2021-10-04T13:21:11.999Z</time>
      </trkpt>
      <trkpt lat="49.58936" lon="3.73316">
        <ele>106.6</ele>
        <time>2021-10-04T13:21:21.617Z</time>
      </trkpt>
      <trkpt lat="49.58928" lon="3.73321">
        <ele>103.15</ele>
        <time>2021-10-04T13:21:30.999Z</time>
      </trkpt>
      <trkpt lat="49.58917" lon="3.73324">
        <ele>100.92</ele>
        <time>2021-10-04T13:21:40.574Z</time>
      </trkpt>
      <trkpt lat="49.58906" lon="3.73329">
        <ele>101.01</ele>
        <time>2021-10-04T13:21:49.657Z</time>
      </trkpt>
      <trkpt lat="49.58895" lon="3.73337">
        <ele>105.21</ele>
        <time>2021-10-04T13:21:58.999Z</time>
      </trkpt>
      <trkpt lat="49.58883" lon="3.73347">
        <ele>102.39</ele>
        <time>2021-10-04T13:22:08.516Z</time>
      </trkpt>
      <trkpt lat="49.58872" lon="3.73352">
        <ele>103.84</ele>
        <time>2021-10-04T13:22:17.569Z</time>
      </trkpt>
      <trkpt lat="49.58863" lon="3.73356">
        <ele>104.19</ele>
        <time>2021-10-04T13:22:26.792Z</time>
      </trkpt>
      <trkpt lat="49.58855" lon="3.73362">
        <ele>103.63</ele>
        <time>2021-10-04T13:22:36.309Z</time>
      </trkpt>
      <trkpt lat="49.58844" lon="3.73364">
        <ele>100.67</ele>
        <time>2021-10-04T13:22:45.618Z</time>
      </trkpt>
      <trkpt lat="49.58833" lon="3.73371">
        <ele>103.71</ele>
        <time>2021-10-04T13:22:54.999Z</time>
      </trkpt>
      <trkpt lat="49.58823" lon="3.73377">
        <ele>105.07</ele>
        <time>2021-10-04T13:23:04.999Z</time>
      </trkpt>
      <trkpt lat="49.5882" lon="3.73381">
        <ele>102.63</ele>
        <time>2021-10-04T13:23:14.999Z</time>
      </trkpt>
      <trkpt lat="49.58815" lon="3.73383">
        <ele>102.07</ele>
        <time>2021-10-04T13:23:24.355Z</time>
      </trkpt>
      <trkpt lat="49.58804" lon="3.73387">
        <ele>101.81</ele>
        <time>2021-10-04T13:23:34.498Z</time>
      </trkpt>
      <trkpt lat="49.58792" lon="3.73392">
        <ele>100.23</ele>
        <time>2021-10-04T13:23:43.590Z</time>
      </trkpt>
      <trkpt lat="49.58785" lon="3.73403">
        <ele>99.76</ele>
        <time>2021-10-04T13:23:52.999Z</time>
      </trkpt>
      <trkpt lat="49.58778" lon="3.73411">
        <ele>100.56</ele>
        <time>2021-10-04T13:24:02.416Z</time>
      </trkpt>
      <trkpt lat="49.5877" lon="3.73415">
        <ele>102</ele>
        <time>2021-10-04T13:24:11.793Z</time>
      </trkpt>
      <trkpt lat="49.5876" lon="3.73421">
        <ele>99.27</ele>
        <time>2021-10-04T13:24:21.288Z</time>
      </trkpt>
      <trkpt lat="49.58757" lon="3.73433">
        <ele>102.3</ele>
        <time>2021-10-04T13:24:30.999Z</time>
      </trkpt>
      <trkpt lat="49.58748" lon="3.73441">
        <ele>101.47</ele>
        <time>2021-10-04T13:24:40.999Z</time>
      </trkpt>
      <trkpt lat="49.58738" lon="3.7345">
        <ele>100.11</ele>
        <time>2021-10-04T13:24:50.552Z</time>
      </trkpt>
      <trkpt lat="49.58727" lon="3.73453">
        <ele>99.17</ele>
        <time>2021-10-04T13:24:59.570Z</time>
      </trkpt>
      <trkpt lat="49.58721" lon="3.73455">
        <ele>100.36</ele>
        <time>2021-10-04T13:25:08.635Z</time>
      </trkpt>
      <trkpt lat="49.58708" lon="3.73458">
        <ele>100.88</ele>
        <time>2021-10-04T13:25:17.747Z</time>
      </trkpt>
      <trkpt lat="49.58695" lon="3.73463">
        <ele>101.59</ele>
        <time>2021-10-04T13:25:27.172Z</time>
      </trkpt>
      <trkpt lat="49.58682" lon="3.73464">
        <ele>101.22</ele>
        <time>2021-10-04T13:25:36.534Z</time>
      </trkpt>
      <trkpt lat="49.58668" lon="3.73468">
        <ele>100.95</ele>
        <time>2021-10-04T13:25:46.108Z</time>
      </trkpt>
      <trkpt lat="49.58654" lon="3.73468">
        <ele>103.53</ele>
        <time>2021-10-04T13:25:56.167Z</time>
      </trkpt>
      <trkpt lat="49.58643" lon="3.73469">
        <ele>76.44</ele>
        <time>2021-10-04T13:26:06.173Z</time>
      </trkpt>
      <trkpt lat="49.58632" lon="3.73467">
        <ele>76.6</ele>
        <time>2021-10-04T13:26:15.217Z</time>
      </trkpt>
      <trkpt lat="49.58621" lon="3.73465">
        <ele>76.64</ele>
        <time>2021-10-04T13:26:24.288Z</time>
      </trkpt>
      <trkpt lat="49.58612" lon="3.73462">
        <ele>76.81</ele>
        <time>2021-10-04T13:26:33.379Z</time>
      </trkpt>
      <trkpt lat="49.58606" lon="3.73464">
        <ele>76.77</ele>
        <time>2021-10-04T13:26:42.591Z</time>
      </trkpt>
      <trkpt lat="49.586" lon="3.7347">
        <ele>76.79</ele>
        <time>2021-10-04T13:26:51.999Z</time>
      </trkpt>
      <trkpt lat="49.58596" lon="3.73469">
        <ele>76.83</ele>
        <time>2021-10-04T13:27:01.999Z</time>
      </trkpt>
      <trkpt lat="49.58595" lon="3.7347">
        <ele>76.67</ele>
        <time>2021-10-04T13:27:12.999Z</time>
      </trkpt>
      <trkpt lat="49.58597" lon="3.73468">
        <ele>76.86</ele>
        <time>2021-10-04T13:27:22.999Z</time>
      </trkpt>
      <trkpt lat="49.58594" lon="3.73467">
        <ele>76.78</ele>
        <time>2021-10-04T13:31:23.999Z</time>
      </trkpt>
      <trkpt lat="49.58589" lon="3.73462">
        <ele>76.81</ele>
        <time>2021-10-04T13:31:33.999Z</time>
      </trkpt>
      <trkpt lat="49.58589" lon="3.73463">
        <ele>76.53</ele>
        <time>2021-10-04T13:33:08.999Z</time>
      </trkpt>
      <trkpt lat="49.58584" lon="3.73463">
        <ele>76.72</ele>
        <time>2021-10-04T13:33:18.999Z</time>
      </trkpt>
      <trkpt lat="49.58584" lon="3.73463">
        <ele>76.77</ele>
        <time>2021-10-04T13:33:30.999Z</time>
      </trkpt>
      <trkpt lat="49.58583" lon="3.73465">
        <ele>76.74</ele>
        <time>2021-10-04T13:33:40.999Z</time>
      </trkpt>
      <trkpt lat="49.58571" lon="3.73456">
        <ele>76.82</ele>
        <time>2021-10-04T13:33:50.999Z</time>
      </trkpt>
      <trkpt lat="49.58558" lon="3.73451">
        <ele>76.98</ele>
        <time>2021-10-04T13:34:01.129Z</time>
      </trkpt>
      <trkpt lat="49.5855" lon="3.73451">
        <ele>76.99</ele>
        <time>2021-10-04T13:34:10.999Z</time>
      </trkpt>
      <trkpt lat="49.58537" lon="3.73462">
        <ele>76.98</ele>
        <time>2021-10-04T13:34:20.980Z</time>
      </trkpt>
      <trkpt lat="49.58533" lon="3.73472">
        <ele>76.92</ele>
        <time>2021-10-04T13:34:29.999Z</time>
      </trkpt>
      <trkpt lat="49.58535" lon="3.73474">
        <ele>76.81</ele>
        <time>2021-10-04T13:34:39.999Z</time>
      </trkpt>
      <trkpt lat="49.58529" lon="3.73474">
        <ele>76.83</ele>
        <time>2021-10-04T13:34:49.127Z</time>
      </trkpt>
      <trkpt lat="49.58516" lon="3.73474">
        <ele>76.72</ele>
        <time>2021-10-04T13:34:58.804Z</time>
      </trkpt>
      <trkpt lat="49.58509" lon="3.73472">
        <ele>76.75</ele>
        <time>2021-10-04T13:35:08.146Z</time>
      </trkpt>
      <trkpt lat="49.58495" lon="3.73466">
        <ele>76.71</ele>
        <time>2021-10-04T13:35:17.422Z</time>
      </trkpt>
      <trkpt lat="49.5848" lon="3.73457">
        <ele>76.79</ele>
        <time>2021-10-04T13:35:26.730Z</time>
      </trkpt>
      <trkpt lat="49.58469" lon="3.73451">
        <ele>76.68</ele>
        <time>2021-10-04T13:35:35.824Z</time>
      </trkpt>
      <trkpt lat="49.58463" lon="3.73437">
        <ele>76.87</ele>
        <time>2021-10-04T13:35:45.999Z</time>
      </trkpt>
      <trkpt lat="49.5845" lon="3.73432">
        <ele>76.78</ele>
        <time>2021-10-04T13:35:55.162Z</time>
      </trkpt>
      <trkpt lat="49.58439" lon="3.73431">
        <ele>76.61</ele>
        <time>2021-10-04T13:36:04.923Z</time>
      </trkpt>
      <trkpt lat="49.5843" lon="3.73424">
        <ele>76.62</ele>
        <time>2021-10-04T13:36:14.257Z</time>
      </trkpt>
      <trkpt lat="49.58421" lon="3.73417">
        <ele>76.58</ele>
        <time>2021-10-04T13:36:23.999Z</time>
      </trkpt>
      <trkpt lat="49.58415" lon="3.73397">
        <ele>76.66</ele>
        <time>2021-10-04T13:36:33.443Z</time>
      </trkpt>
      <trkpt lat="49.58413" lon="3.7338">
        <ele>76.41</ele>
        <time>2021-10-04T13:36:42.591Z</time>
      </trkpt>
      <trkpt lat="49.58405" lon="3.73366">
        <ele>76.32</ele>
        <time>2021-10-04T13:36:51.960Z</time>
      </trkpt>
      <trkpt lat="49.58398" lon="3.73352">
        <ele>76.29</ele>
        <time>2021-10-04T13:37:01.301Z</time>
      </trkpt>
      <trkpt lat="49.58391" lon="3.73336">
        <ele>75.97</ele>
        <time>2021-10-04T13:37:10.988Z</time>
      </trkpt>
      <trkpt lat="49.5838" lon="3.73324">
        <ele>75.69</ele>
        <time>2021-10-04T13:37:20.999Z</time>
      </trkpt>
      <trkpt lat="49.5837" lon="3.73313">
        <ele>75.61</ele>
        <time>2021-10-04T13:37:30.064Z</time>
      </trkpt>
      <trkpt lat="49.58361" lon="3.73304">
        <ele>75.6</ele>
        <time>2021-10-04T13:37:39.265Z</time>
      </trkpt>
      <trkpt lat="49.58353" lon="3.73293">
        <ele>75.66</ele>
        <time>2021-10-04T13:37:48.343Z</time>
      </trkpt>
      <trkpt lat="49.58345" lon="3.73281">
        <ele>75.53</ele>
        <time>2021-10-04T13:37:57.467Z</time>
      </trkpt>
      <trkpt lat="49.58345" lon="3.73258">
        <ele>75.35</ele>
        <time>2021-10-04T13:38:06.722Z</time>
      </trkpt>
      <trkpt lat="49.58343" lon="3.73243">
        <ele>75.55</ele>
        <time>2021-10-04T13:38:15.999Z</time>
      </trkpt>
      <trkpt lat="49.58335" lon="3.73226">
        <ele>75.55</ele>
        <time>2021-10-04T13:38:25.903Z</time>
      </trkpt>
      <trkpt lat="49.58329" lon="3.73212">
        <ele>75.39</ele>
        <time>2021-10-04T13:38:35.479Z</time>
      </trkpt>
      <trkpt lat="49.58326" lon="3.73194">
        <ele>75.56</ele>
        <time>2021-10-04T13:38:44.549Z</time>
      </trkpt>
      <trkpt lat="49.58327" lon="3.73173">
        <ele>75.56</ele>
        <time>2021-10-04T13:38:53.961Z</time>
      </trkpt>
      <trkpt lat="49.58327" lon="3.73154">
        <ele>75.78</ele>
        <time>2021-10-04T13:39:03.058Z</time>
      </trkpt>
      <trkpt lat="49.58322" lon="3.73136">
        <ele>75.82</ele>
        <time>2021-10-04T13:39:12.584Z</time>
      </trkpt>
      <trkpt lat="49.5831" lon="3.73125">
        <ele>75.78</ele>
        <time>2021-10-04T13:39:21.808Z</time>
      </trkpt>
      <trkpt lat="49.58298" lon="3.73117">
        <ele>75.8</ele>
        <time>2021-10-04T13:39:30.943Z</time>
      </trkpt>
      <trkpt lat="49.58292" lon="3.73111">
        <ele>75.76</ele>
        <time>2021-10-04T13:39:40.999Z</time>
      </trkpt>
      <trkpt lat="49.58281" lon="3.73102">
        <ele>75.58</ele>
        <time>2021-10-04T13:39:50.437Z</time>
      </trkpt>
      <trkpt lat="49.58271" lon="3.73091">
        <ele>75.52</ele>
        <time>2021-10-04T13:39:59.796Z</time>
      </trkpt>
      <trkpt lat="49.58263" lon="3.73075">
        <ele>75.75</ele>
        <time>2021-10-04T13:40:08.939Z</time>
      </trkpt>
      <trkpt lat="49.58254" lon="3.73064">
        <ele>75.73</ele>
        <time>2021-10-04T13:40:18.057Z</time>
      </trkpt>
      <trkpt lat="49.58247" lon="3.73052">
        <ele>75.69</ele>
        <time>2021-10-04T13:40:27.999Z</time>
      </trkpt>
      <trkpt lat="49.58237" lon="3.73043">
        <ele>75.68</ele>
        <time>2021-10-04T13:40:37.112Z</time>
      </trkpt>
      <trkpt lat="49.58227" lon="3.73034">
        <ele>75.72</ele>
        <time>2021-10-04T13:40:46.397Z</time>
      </trkpt>
      <trkpt lat="49.58219" lon="3.73023">
        <ele>75.79</ele>
        <time>2021-10-04T13:40:55.583Z</time>
      </trkpt>
      <trkpt lat="49.58207" lon="3.73015">
        <ele>75.66</ele>
        <time>2021-10-04T13:41:05.001Z</time>
      </trkpt>
      <trkpt lat="49.58197" lon="3.73003">
        <ele>75.63</ele>
        <time>2021-10-04T13:41:14.254Z</time>
      </trkpt>
      <trkpt lat="49.58189" lon="3.72991">
        <ele>75.66</ele>
        <time>2021-10-04T13:41:23.379Z</time>
      </trkpt>
      <trkpt lat="49.58179" lon="3.7298">
        <ele>75.67</ele>
        <time>2021-10-04T13:41:32.593Z</time>
      </trkpt>
      <trkpt lat="49.58167" lon="3.72975">
        <ele>75.94</ele>
        <time>2021-10-04T13:41:41.777Z</time>
      </trkpt>
      <trkpt lat="49.58154" lon="3.72976">
        <ele>76.13</ele>
        <time>2021-10-04T13:41:50.978Z</time>
      </trkpt>
      <trkpt lat="49.58142" lon="3.72976">
        <ele>76.13</ele>
        <time>2021-10-04T13:41:59.999Z</time>
      </trkpt>
      <trkpt lat="49.58127" lon="3.72979">
        <ele>76.09</ele>
        <time>2021-10-04T13:42:09.017Z</time>
      </trkpt>
      <trkpt lat="49.58117" lon="3.72978">
        <ele>76.17</ele>
        <time>2021-10-04T13:42:18.458Z</time>
      </trkpt>
      <trkpt lat="49.58105" lon="3.72977">
        <ele>76.14</ele>
        <time>2021-10-04T13:42:27.841Z</time>
      </trkpt>
      <trkpt lat="49.58096" lon="3.72976">
        <ele>76.08</ele>
        <time>2021-10-04T13:42:37.072Z</time>
      </trkpt>
      <trkpt lat="49.58085" lon="3.72978">
        <ele>76.39</ele>
        <time>2021-10-04T13:42:46.115Z</time>
      </trkpt>
      <trkpt lat="49.58072" lon="3.72982">
        <ele>76.28</ele>
        <time>2021-10-04T13:42:55.901Z</time>
      </trkpt>
      <trkpt lat="49.58062" lon="3.72979">
        <ele>76.28</ele>
        <time>2021-10-04T13:43:04.999Z</time>
      </trkpt>
      <trkpt lat="49.58052" lon="3.72968">
        <ele>76.16</ele>
        <time>2021-10-04T13:43:14.933Z</time>
      </trkpt>
      <trkpt lat="49.58042" lon="3.72962">
        <ele>76.26</ele>
        <time>2021-10-04T13:43:24.078Z</time>
      </trkpt>
      <trkpt lat="49.58031" lon="3.72957">
        <ele>76.17</ele>
        <time>2021-10-04T13:43:33.779Z</time>
      </trkpt>
      <trkpt lat="49.58021" lon="3.72956">
        <ele>76.14</ele>
        <time>2021-10-04T13:43:43.312Z</time>
      </trkpt>
      <trkpt lat="49.58009" lon="3.72953">
        <ele>76.08</ele>
        <time>2021-10-04T13:43:52.978Z</time>
      </trkpt>
      <trkpt lat="49.57997" lon="3.72943">
        <ele>76.01</ele>
        <time>2021-10-04T13:44:02.313Z</time>
      </trkpt>
      <trkpt lat="49.57986" lon="3.72937">
        <ele>76.12</ele>
        <time>2021-10-04T13:44:11.781Z</time>
      </trkpt>
      <trkpt lat="49.57974" lon="3.72933">
        <ele>76.19</ele>
        <time>2021-10-04T13:44:20.841Z</time>
      </trkpt>
      <trkpt lat="49.57963" lon="3.7293">
        <ele>76.13</ele>
        <time>2021-10-04T13:44:30.066Z</time>
      </trkpt>
      <trkpt lat="49.57956" lon="3.72928">
        <ele>76.15</ele>
        <time>2021-10-04T13:44:39.342Z</time>
      </trkpt>
      <trkpt lat="49.57952" lon="3.7293">
        <ele>76.07</ele>
        <time>2021-10-04T13:44:48.999Z</time>
      </trkpt>
      <trkpt lat="49.5795" lon="3.72928">
        <ele>76.02</ele>
        <time>2021-10-04T13:44:58.341Z</time>
      </trkpt>
      <trkpt lat="49.57944" lon="3.72916">
        <ele>76</ele>
        <time>2021-10-04T13:45:07.597Z</time>
      </trkpt>
      <trkpt lat="49.57944" lon="3.72907">
        <ele>75.94</ele>
        <time>2021-10-04T13:45:16.999Z</time>
      </trkpt>
      <trkpt lat="49.57945" lon="3.72912">
        <ele>75.83</ele>
        <time>2021-10-04T13:45:26.999Z</time>
      </trkpt>
      <trkpt lat="49.57944" lon="3.72915">
        <ele>75.91</ele>
        <time>2021-10-04T13:45:36.999Z</time>
      </trkpt>
      <trkpt lat="49.57944" lon="3.72916">
        <ele>75.98</ele>
        <time>2021-10-04T13:45:46.999Z</time>
      </trkpt>
      <trkpt lat="49.57938" lon="3.72905">
        <ele>75.85</ele>
        <time>2021-10-04T13:45:56.999Z</time>
      </trkpt>
      <trkpt lat="49.57939" lon="3.72884">
        <ele>75.88</ele>
        <time>2021-10-04T13:46:06.999Z</time>
      </trkpt>
      <trkpt lat="49.57935" lon="3.72872">
        <ele>75.84</ele>
        <time>2021-10-04T13:46:16.999Z</time>
      </trkpt>
      <trkpt lat="49.57931" lon="3.72854">
        <ele>75.85</ele>
        <time>2021-10-04T13:46:26.857Z</time>
      </trkpt>
      <trkpt lat="49.57928" lon="3.72836">
        <ele>75.9</ele>
        <time>2021-10-04T13:46:36.061Z</time>
      </trkpt>
      <trkpt lat="49.57925" lon="3.72814">
        <ele>75.71</ele>
        <time>2021-10-04T13:46:45.517Z</time>
      </trkpt>
      <trkpt lat="49.5792" lon="3.72796">
        <ele>75.77</ele>
        <time>2021-10-04T13:46:55.059Z</time>
      </trkpt>
      <trkpt lat="49.57917" lon="3.7278">
        <ele>75.71</ele>
        <time>2021-10-04T13:47:04.441Z</time>
      </trkpt>
      <trkpt lat="49.57913" lon="3.72764">
        <ele>96.94</ele>
        <time>2021-10-04T13:47:13.616Z</time>
      </trkpt>
      <trkpt lat="49.57909" lon="3.72752">
        <ele>92.53</ele>
        <time>2021-10-04T13:47:23.999Z</time>
      </trkpt>
      <trkpt lat="49.57904" lon="3.72737">
        <ele>91.36</ele>
        <time>2021-10-04T13:47:33.692Z</time>
      </trkpt>
      <trkpt lat="49.579" lon="3.72721">
        <ele>86.76</ele>
        <time>2021-10-04T13:47:43.019Z</time>
      </trkpt>
      <trkpt lat="49.57894" lon="3.72707">
        <ele>89.92</ele>
        <time>2021-10-04T13:47:52.999Z</time>
      </trkpt>
      <trkpt lat="49.5789" lon="3.7269">
        <ele>85.17</ele>
        <time>2021-10-04T13:48:02.999Z</time>
      </trkpt>
      <trkpt lat="49.57887" lon="3.72667">
        <ele>80.66</ele>
        <time>2021-10-04T13:48:12.999Z</time>
      </trkpt>
      <trkpt lat="49.57885" lon="3.72646">
        <ele>80.23</ele>
        <time>2021-10-04T13:48:22.275Z</time>
      </trkpt>
      <trkpt lat="49.5788" lon="3.72632">
        <ele>79.6</ele>
        <time>2021-10-04T13:48:31.382Z</time>
      </trkpt>
      <trkpt lat="49.57874" lon="3.72615">
        <ele>80</ele>
        <time>2021-10-04T13:48:41.999Z</time>
      </trkpt>
      <trkpt lat="49.57869" lon="3.72596">
        <ele>77.17</ele>
        <time>2021-10-04T13:48:51.059Z</time>
      </trkpt>
      <trkpt lat="49.57866" lon="3.7258">
        <ele>76.5</ele>
        <time>2021-10-04T13:49:01.062Z</time>
      </trkpt>
      <trkpt lat="49.57865" lon="3.72566">
        <ele>77.99</ele>
        <time>2021-10-04T13:49:10.999Z</time>
      </trkpt>
      <trkpt lat="49.57862" lon="3.72548">
        <ele>73.37</ele>
        <time>2021-10-04T13:49:20.859Z</time>
      </trkpt>
      <trkpt lat="49.57858" lon="3.72533">
        <ele>75.4</ele>
        <time>2021-10-04T13:49:29.875Z</time>
      </trkpt>
      <trkpt lat="49.57854" lon="3.7252">
        <ele>74.39</ele>
        <time>2021-10-04T13:49:39.999Z</time>
      </trkpt>
      <trkpt lat="49.57848" lon="3.72502">
        <ele>72.69</ele>
        <time>2021-10-04T13:49:50.999Z</time>
      </trkpt>
      <trkpt lat="49.57843" lon="3.72485">
        <ele>74.19</ele>
        <time>2021-10-04T13:50:01.057Z</time>
      </trkpt>
      <trkpt lat="49.57841" lon="3.72471">
        <ele>71.59</ele>
        <time>2021-10-04T13:50:10.999Z</time>
      </trkpt>
      <trkpt lat="49.57837" lon="3.72454">
        <ele>73.41</ele>
        <time>2021-10-04T13:50:20.553Z</time>
      </trkpt>
      <trkpt lat="49.57832" lon="3.72436">
        <ele>73.88</ele>
        <time>2021-10-04T13:50:30.119Z</time>
      </trkpt>
      <trkpt lat="49.57827" lon="3.72418">
        <ele>74.69</ele>
        <time>2021-10-04T13:50:39.973Z</time>
      </trkpt>
      <trkpt lat="49.57823" lon="3.72402">
        <ele>74.69</ele>
        <time>2021-10-04T13:50:49.397Z</time>
      </trkpt>
      <trkpt lat="49.57819" lon="3.72389">
        <ele>75.46</ele>
        <time>2021-10-04T13:50:58.751Z</time>
      </trkpt>
      <trkpt lat="49.57816" lon="3.7237">
        <ele>71.31</ele>
        <time>2021-10-04T13:51:08.098Z</time>
      </trkpt>
      <trkpt lat="49.57813" lon="3.72353">
        <ele>74.95</ele>
        <time>2021-10-04T13:51:17.301Z</time>
      </trkpt>
      <trkpt lat="49.57808" lon="3.72339">
        <ele>70.32</ele>
        <time>2021-10-04T13:51:26.356Z</time>
      </trkpt>
      <trkpt lat="49.57805" lon="3.72323">
        <ele>71.11</ele>
        <time>2021-10-04T13:51:35.380Z</time>
      </trkpt>
      <trkpt lat="49.57801" lon="3.72304">
        <ele>72.95</ele>
        <time>2021-10-04T13:51:45.351Z</time>
      </trkpt>
      <trkpt lat="49.57795" lon="3.72288">
        <ele>71.19</ele>
        <time>2021-10-04T13:51:54.703Z</time>
      </trkpt>
      <trkpt lat="49.57789" lon="3.72274">
        <ele>69.87</ele>
        <time>2021-10-04T13:52:03.902Z</time>
      </trkpt>
      <trkpt lat="49.57785" lon="3.72259">
        <ele>70.49</ele>
        <time>2021-10-04T13:52:13.865Z</time>
      </trkpt>
      <trkpt lat="49.57783" lon="3.72242">
        <ele>69.55</ele>
        <time>2021-10-04T13:52:23.792Z</time>
      </trkpt>
      <trkpt lat="49.57782" lon="3.72228">
        <ele>69.29</ele>
        <time>2021-10-04T13:52:33.263Z</time>
      </trkpt>
      <trkpt lat="49.57779" lon="3.72213">
        <ele>69.42</ele>
        <time>2021-10-04T13:52:43.072Z</time>
      </trkpt>
      <trkpt lat="49.57776" lon="3.72192">
        <ele>64.07</ele>
        <time>2021-10-04T13:52:52.819Z</time>
      </trkpt>
      <trkpt lat="49.57772" lon="3.72172">
        <ele>65.05</ele>
        <time>2021-10-04T13:53:02.094Z</time>
      </trkpt>
      <trkpt lat="49.57766" lon="3.72154">
        <ele>67</ele>
        <time>2021-10-04T13:53:11.833Z</time>
      </trkpt>
      <trkpt lat="49.57761" lon="3.72139">
        <ele>69.49</ele>
        <time>2021-10-04T13:53:21.019Z</time>
      </trkpt>
      <trkpt lat="49.57756" lon="3.72126">
        <ele>68.31</ele>
        <time>2021-10-04T13:53:30.999Z</time>
      </trkpt>
      <trkpt lat="49.57753" lon="3.72105">
        <ele>68.72</ele>
        <time>2021-10-04T13:53:40.999Z</time>
      </trkpt>
      <trkpt lat="49.5775" lon="3.72086">
        <ele>70.08</ele>
        <time>2021-10-04T13:53:50.798Z</time>
      </trkpt>
      <trkpt lat="49.57746" lon="3.7207">
        <ele>68.63</ele>
        <time>2021-10-04T13:53:59.999Z</time>
      </trkpt>
      <trkpt lat="49.57741" lon="3.7205">
        <ele>69.7</ele>
        <time>2021-10-04T13:54:09.575Z</time>
      </trkpt>
      <trkpt lat="49.57735" lon="3.72034">
        <ele>71.28</ele>
        <time>2021-10-04T13:54:18.679Z</time>
      </trkpt>
      <trkpt lat="49.57727" lon="3.72018">
        <ele>70.39</ele>
        <time>2021-10-04T13:54:28.999Z</time>
      </trkpt>
      <trkpt lat="49.57724" lon="3.72002">
        <ele>66.74</ele>
        <time>2021-10-04T13:54:38.112Z</time>
      </trkpt>
      <trkpt lat="49.57721" lon="3.71987">
        <ele>66.63</ele>
        <time>2021-10-04T13:54:47.922Z</time>
      </trkpt>
      <trkpt lat="49.57722" lon="3.71971">
        <ele>63.97</ele>
        <time>2021-10-04T13:54:57.356Z</time>
      </trkpt>
      <trkpt lat="49.57721" lon="3.71953">
        <ele>65.18</ele>
        <time>2021-10-04T13:55:06.842Z</time>
      </trkpt>
      <trkpt lat="49.57719" lon="3.71933">
        <ele>66.95</ele>
        <time>2021-10-04T13:55:16.831Z</time>
      </trkpt>
      <trkpt lat="49.57717" lon="3.71915">
        <ele>68.9</ele>
        <time>2021-10-04T13:55:26.999Z</time>
      </trkpt>
      <trkpt lat="49.57709" lon="3.71898">
        <ele>64.74</ele>
        <time>2021-10-04T13:55:36.896Z</time>
      </trkpt>
      <trkpt lat="49.57704" lon="3.71882">
        <ele>66.2</ele>
        <time>2021-10-04T13:55:46.582Z</time>
      </trkpt>
      <trkpt lat="49.57699" lon="3.71867">
        <ele>66.89</ele>
        <time>2021-10-04T13:55:55.591Z</time>
      </trkpt>
      <trkpt lat="49.57695" lon="3.71852">
        <ele>66.79</ele>
        <time>2021-10-04T13:56:05.999Z</time>
      </trkpt>
      <trkpt lat="49.57687" lon="3.71834">
        <ele>66.81</ele>
        <time>2021-10-04T13:56:15.999Z</time>
      </trkpt>
      <trkpt lat="49.5768" lon="3.71813">
        <ele>68.66</ele>
        <time>2021-10-04T13:56:25.999Z</time>
      </trkpt>
      <trkpt lat="49.57677" lon="3.71795">
        <ele>68.81</ele>
        <time>2021-10-04T13:56:35.999Z</time>
      </trkpt>
      <trkpt lat="49.57674" lon="3.71776">
        <ele>67.61</ele>
        <time>2021-10-04T13:56:46.115Z</time>
      </trkpt>
      <trkpt lat="49.57666" lon="3.71762">
        <ele>68.08</ele>
        <time>2021-10-04T13:56:56.103Z</time>
      </trkpt>
      <trkpt lat="49.57657" lon="3.71749">
        <ele>67.66</ele>
        <time>2021-10-04T13:57:06.999Z</time>
      </trkpt>
      <trkpt lat="49.57645" lon="3.71732">
        <ele>68.54</ele>
        <time>2021-10-04T13:57:16.701Z</time>
      </trkpt>
      <trkpt lat="49.57635" lon="3.71723">
        <ele>65.86</ele>
        <time>2021-10-04T13:57:26.999Z</time>
      </trkpt>
      <trkpt lat="49.57624" lon="3.71715">
        <ele>68.6</ele>
        <time>2021-10-04T13:57:36.602Z</time>
      </trkpt>
      <trkpt lat="49.57617" lon="3.71705">
        <ele>67.34</ele>
        <time>2021-10-04T13:57:45.999Z</time>
      </trkpt>
      <trkpt lat="49.57607" lon="3.71691">
        <ele>67.69</ele>
        <time>2021-10-04T13:57:56.025Z</time>
      </trkpt>
      <trkpt lat="49.57601" lon="3.71679">
        <ele>69.31</ele>
        <time>2021-10-04T13:58:05.999Z</time>
      </trkpt>
      <trkpt lat="49.57595" lon="3.71666">
        <ele>70.92</ele>
        <time>2021-10-04T13:58:15.078Z</time>
      </trkpt>
      <trkpt lat="49.57588" lon="3.71655">
        <ele>68.55</ele>
        <time>2021-10-04T13:58:24.238Z</time>
      </trkpt>
      <trkpt lat="49.5758" lon="3.71641">
        <ele>72.31</ele>
        <time>2021-10-04T13:58:33.834Z</time>
      </trkpt>
      <trkpt lat="49.57572" lon="3.7163">
        <ele>72.92</ele>
        <time>2021-10-04T13:58:42.938Z</time>
      </trkpt>
      <trkpt lat="49.57565" lon="3.71617">
        <ele>72.52</ele>
        <time>2021-10-04T13:58:52.999Z</time>
      </trkpt>
      <trkpt lat="49.57559" lon="3.71602">
        <ele>71.28</ele>
        <time>2021-10-04T13:59:02.396Z</time>
      </trkpt>
      <trkpt lat="49.57556" lon="3.7159">
        <ele>72.26</ele>
        <time>2021-10-04T13:59:11.999Z</time>
      </trkpt>
      <trkpt lat="49.57553" lon="3.71573">
        <ele>72.71</ele>
        <time>2021-10-04T13:59:21.791Z</time>
      </trkpt>
      <trkpt lat="49.5755" lon="3.71558">
        <ele>74.85</ele>
        <time>2021-10-04T13:59:31.332Z</time>
      </trkpt>
      <trkpt lat="49.5755" lon="3.71553">
        <ele>75.06</ele>
        <time>2021-10-04T13:59:40.999Z</time>
      </trkpt>
      <trkpt lat="49.5755" lon="3.71555">
        <ele>76.51</ele>
        <time>2021-10-04T13:59:50.060Z</time>
      </trkpt>
      <trkpt lat="49.57553" lon="3.71548">
        <ele>76.04</ele>
        <time>2021-10-04T14:00:00.999Z</time>
      </trkpt>
      <trkpt lat="49.57555" lon="3.71538">
        <ele>81.46</ele>
        <time>2021-10-04T14:00:10.999Z</time>
      </trkpt>
      <trkpt lat="49.57554" lon="3.71517">
        <ele>87.02</ele>
        <time>2021-10-04T14:00:20.999Z</time>
      </trkpt>
      <trkpt lat="49.57546" lon="3.71498">
        <ele>89.33</ele>
        <time>2021-10-04T14:00:31.999Z</time>
      </trkpt>
      <trkpt lat="49.57542" lon="3.71495">
        <ele>90.9</ele>
        <time>2021-10-04T14:00:41.999Z</time>
      </trkpt>
      <trkpt lat="49.57541" lon="3.71482">
        <ele>89.72</ele>
        <time>2021-10-04T14:00:51.863Z</time>
      </trkpt>
      <trkpt lat="49.57544" lon="3.71477">
        <ele>91.59</ele>
        <time>2021-10-04T14:01:00.999Z</time>
      </trkpt>
      <trkpt lat="49.57543" lon="3.71473">
        <ele>91.69</ele>
        <time>2021-10-04T14:01:10.999Z</time>
      </trkpt>
      <trkpt lat="49.57542" lon="3.7145">
        <ele>92.08</ele>
        <time>2021-10-04T14:01:20.943Z</time>
      </trkpt>
      <trkpt lat="49.57542" lon="3.71433">
        <ele>90.25</ele>
        <time>2021-10-04T14:01:30.999Z</time>
      </trkpt>
      <trkpt lat="49.57539" lon="3.71417">
        <ele>89.19</ele>
        <time>2021-10-04T14:01:40.127Z</time>
      </trkpt>
      <trkpt lat="49.57538" lon="3.71405">
        <ele>89.63</ele>
        <time>2021-10-04T14:01:49.999Z</time>
      </trkpt>
      <trkpt lat="49.57536" lon="3.71385">
        <ele>90.53</ele>
        <time>2021-10-04T14:01:59.496Z</time>
      </trkpt>
      <trkpt lat="49.57535" lon="3.71372">
        <ele>92.59</ele>
        <time>2021-10-04T14:02:08.659Z</time>
      </trkpt>
      <trkpt lat="49.57534" lon="3.71358">
        <ele>95.15</ele>
        <time>2021-10-04T14:02:18.999Z</time>
      </trkpt>
      <trkpt lat="49.57532" lon="3.71344">
        <ele>98.48</ele>
        <time>2021-10-04T14:02:28.799Z</time>
      </trkpt>
      <trkpt lat="49.57531" lon="3.71329">
        <ele>97.77</ele>
        <time>2021-10-04T14:02:37.999Z</time>
      </trkpt>
      <trkpt lat="49.57529" lon="3.71309">
        <ele>100.94</ele>
        <time>2021-10-04T14:02:47.999Z</time>
      </trkpt>
      <trkpt lat="49.57525" lon="3.71293">
        <ele>100.55</ele>
        <time>2021-10-04T14:02:57.999Z</time>
      </trkpt>
      <trkpt lat="49.57525" lon="3.71274">
        <ele>100.73</ele>
        <time>2021-10-04T14:03:07.099Z</time>
      </trkpt>
      <trkpt lat="49.57527" lon="3.71262">
        <ele>101.57</ele>
        <time>2021-10-04T14:03:16.999Z</time>
      </trkpt>
      <trkpt lat="49.57524" lon="3.7125">
        <ele>103.85</ele>
        <time>2021-10-04T14:03:26.161Z</time>
      </trkpt>
      <trkpt lat="49.57523" lon="3.71231">
        <ele>101.62</ele>
        <time>2021-10-04T14:03:35.740Z</time>
      </trkpt>
      <trkpt lat="49.5752" lon="3.71213">
        <ele>103.33</ele>
        <time>2021-10-04T14:03:44.842Z</time>
      </trkpt>
      <trkpt lat="49.57518" lon="3.71195">
        <ele>103.67</ele>
        <time>2021-10-04T14:03:53.876Z</time>
      </trkpt>
      <trkpt lat="49.57516" lon="3.71181">
        <ele>103.71</ele>
        <time>2021-10-04T14:04:02.999Z</time>
      </trkpt>
      <trkpt lat="49.57517" lon="3.71165">
        <ele>102.8</ele>
        <time>2021-10-04T14:04:12.999Z</time>
      </trkpt>
      <trkpt lat="49.57515" lon="3.71143">
        <ele>104.18</ele>
        <time>2021-10-04T14:04:23.038Z</time>
      </trkpt>
      <trkpt lat="49.57513" lon="3.71122">
        <ele>103.09</ele>
        <time>2021-10-04T14:04:32.054Z</time>
      </trkpt>
      <trkpt lat="49.57513" lon="3.71104">
        <ele>105.13</ele>
        <time>2021-10-04T14:04:41.999Z</time>
      </trkpt>
      <trkpt lat="49.57512" lon="3.71087">
        <ele>105.47</ele>
        <time>2021-10-04T14:04:51.895Z</time>
      </trkpt>
      <trkpt lat="49.57511" lon="3.71072">
        <ele>105.77</ele>
        <time>2021-10-04T14:05:01.877Z</time>
      </trkpt>
      <trkpt lat="49.57501" lon="3.71076">
        <ele>105.29</ele>
        <time>2021-10-04T14:05:11.940Z</time>
      </trkpt>
      <trkpt lat="49.57488" lon="3.71073">
        <ele>105.93</ele>
        <time>2021-10-04T14:05:22.015Z</time>
      </trkpt>
      <trkpt lat="49.57479" lon="3.71075">
        <ele>106.46</ele>
        <time>2021-10-04T14:05:31.098Z</time>
      </trkpt>
      <trkpt lat="49.5747" lon="3.7107">
        <ele>105.05</ele>
        <time>2021-10-04T14:05:40.512Z</time>
      </trkpt>
      <trkpt lat="49.57459" lon="3.71073">
        <ele>105.92</ele>
        <time>2021-10-04T14:05:50.055Z</time>
      </trkpt>
      <trkpt lat="49.57446" lon="3.71075">
        <ele>107.18</ele>
        <time>2021-10-04T14:05:59.756Z</time>
      </trkpt>
      <trkpt lat="49.57437" lon="3.7108">
        <ele>107.26</ele>
        <time>2021-10-04T14:06:10.000Z</time>
      </trkpt>
      <trkpt lat="49.57428" lon="3.71088">
        <ele>107.44</ele>
        <time>2021-10-04T14:06:20.000Z</time>
      </trkpt>
      <trkpt lat="49.57416" lon="3.71093">
        <ele>106.45</ele>
        <time>2021-10-04T14:06:29.492Z</time>
      </trkpt>
      <trkpt lat="49.57405" lon="3.71099">
        <ele>105.16</ele>
        <time>2021-10-04T14:06:38.518Z</time>
      </trkpt>
      <trkpt lat="49.57395" lon="3.71105">
        <ele>107.23</ele>
        <time>2021-10-04T14:06:48.082Z</time>
      </trkpt>
      <trkpt lat="49.57387" lon="3.71117">
        <ele>107.38</ele>
        <time>2021-10-04T14:06:57.558Z</time>
      </trkpt>
      <trkpt lat="49.57376" lon="3.71121">
        <ele>107.79</ele>
        <time>2021-10-04T14:07:07.078Z</time>
      </trkpt>
      <trkpt lat="49.57367" lon="3.7113">
        <ele>104.39</ele>
        <time>2021-10-04T14:07:16.621Z</time>
      </trkpt>
      <trkpt lat="49.57359" lon="3.71138">
        <ele>103.76</ele>
        <time>2021-10-04T14:07:26.000Z</time>
      </trkpt>
      <trkpt lat="49.57351" lon="3.7115">
        <ele>101.83</ele>
        <time>2021-10-04T14:07:35.531Z</time>
      </trkpt>
      <trkpt lat="49.57345" lon="3.7116">
        <ele>100.77</ele>
        <time>2021-10-04T14:07:44.656Z</time>
      </trkpt>
      <trkpt lat="49.57336" lon="3.71173">
        <ele>99.7</ele>
        <time>2021-10-04T14:07:53.898Z</time>
      </trkpt>
      <trkpt lat="49.57328" lon="3.71183">
        <ele>99.63</ele>
        <time>2021-10-04T14:08:03.275Z</time>
      </trkpt>
      <trkpt lat="49.5732" lon="3.7119">
        <ele>96.92</ele>
        <time>2021-10-04T14:08:12.514Z</time>
      </trkpt>
      <trkpt lat="49.5731" lon="3.71193">
        <ele>96.03</ele>
        <time>2021-10-04T14:08:21.735Z</time>
      </trkpt>
      <trkpt lat="49.57299" lon="3.71195">
        <ele>95.17</ele>
        <time>2021-10-04T14:08:31.014Z</time>
      </trkpt>
      <trkpt lat="49.57288" lon="3.71193">
        <ele>91.6</ele>
        <time>2021-10-04T14:08:41.000Z</time>
      </trkpt>
      <trkpt lat="49.57276" lon="3.71189">
        <ele>91.2</ele>
        <time>2021-10-04T14:08:51.092Z</time>
      </trkpt>
      <trkpt lat="49.57267" lon="3.71183">
        <ele>92.7</ele>
        <time>2021-10-04T14:09:01.000Z</time>
      </trkpt>
      <trkpt lat="49.57257" lon="3.71177">
        <ele>92.38</ele>
        <time>2021-10-04T14:09:10.334Z</time>
      </trkpt>
      <trkpt lat="49.57247" lon="3.71172">
        <ele>92.97</ele>
        <time>2021-10-04T14:09:19.554Z</time>
      </trkpt>
      <trkpt lat="49.57236" lon="3.71176">
        <ele>93.94</ele>
        <time>2021-10-04T14:09:29.494Z</time>
      </trkpt>
      <trkpt lat="49.57225" lon="3.71177">
        <ele>94.65</ele>
        <time>2021-10-04T14:09:39.396Z</time>
      </trkpt>
      <trkpt lat="49.57214" lon="3.71173">
        <ele>94.51</ele>
        <time>2021-10-04T14:09:48.791Z</time>
      </trkpt>
      <trkpt lat="49.57202" lon="3.71166">
        <ele>94.37</ele>
        <time>2021-10-04T14:09:58.094Z</time>
      </trkpt>
      <trkpt lat="49.57189" lon="3.71164">
        <ele>96.23</ele>
        <time>2021-10-04T14:10:07.474Z</time>
      </trkpt>
      <trkpt lat="49.57178" lon="3.71165">
        <ele>96.66</ele>
        <time>2021-10-04T14:10:16.961Z</time>
      </trkpt>
      <trkpt lat="49.5717" lon="3.7117">
        <ele>97.86</ele>
        <time>2021-10-04T14:10:26.000Z</time>
      </trkpt>
      <trkpt lat="49.57161" lon="3.71181">
        <ele>99.41</ele>
        <time>2021-10-04T14:10:35.298Z</time>
      </trkpt>
      <trkpt lat="49.57154" lon="3.71194">
        <ele>98.85</ele>
        <time>2021-10-04T14:10:44.597Z</time>
      </trkpt>
      <trkpt lat="49.57151" lon="3.71206">
        <ele>97.92</ele>
        <time>2021-10-04T14:10:55.000Z</time>
      </trkpt>
      <trkpt lat="49.5715" lon="3.71222">
        <ele>97.38</ele>
        <time>2021-10-04T14:11:04.054Z</time>
      </trkpt>
      <trkpt lat="49.57146" lon="3.71236">
        <ele>96.83</ele>
        <time>2021-10-04T14:11:13.621Z</time>
      </trkpt>
      <trkpt lat="49.57139" lon="3.71248">
        <ele>92.64</ele>
        <time>2021-10-04T14:11:23.538Z</time>
      </trkpt>
      <trkpt lat="49.57133" lon="3.71255">
        <ele>93.11</ele>
        <time>2021-10-04T14:11:33.000Z</time>
      </trkpt>
      <trkpt lat="49.57126" lon="3.71251">
        <ele>94.64</ele>
        <time>2021-10-04T14:11:43.000Z</time>
      </trkpt>
      <trkpt lat="49.57126" lon="3.71237">
        <ele>90.39</ele>
        <time>2021-10-04T14:11:52.957Z</time>
      </trkpt>
      <trkpt lat="49.57132" lon="3.71231">
        <ele>91.09</ele>
        <time>2021-10-04T14:12:02.900Z</time>
      </trkpt>
      <trkpt lat="49.57139" lon="3.71223">
        <ele>90.92</ele>
        <time>2021-10-04T14:12:12.431Z</time>
      </trkpt>
      <trkpt lat="49.5715" lon="3.71214">
        <ele>90.64</ele>
        <time>2021-10-04T14:12:21.652Z</time>
      </trkpt>
      <trkpt lat="49.57159" lon="3.71202">
        <ele>92.4</ele>
        <time>2021-10-04T14:12:30.656Z</time>
      </trkpt>
      <trkpt lat="49.57164" lon="3.71188">
        <ele>92.35</ele>
        <time>2021-10-04T14:12:40.001Z</time>
      </trkpt>
      <trkpt lat="49.57169" lon="3.71174">
        <ele>95.15</ele>
        <time>2021-10-04T14:12:49.256Z</time>
      </trkpt>
      <trkpt lat="49.57173" lon="3.71161">
        <ele>95.99</ele>
        <time>2021-10-04T14:12:58.757Z</time>
      </trkpt>
      <trkpt lat="49.5718" lon="3.71155">
        <ele>97.09</ele>
        <time>2021-10-04T14:13:08.000Z</time>
      </trkpt>
      <trkpt lat="49.5719" lon="3.71147">
        <ele>97.59</ele>
        <time>2021-10-04T14:13:17.502Z</time>
      </trkpt>
      <trkpt lat="49.57201" lon="3.71147">
        <ele>99.18</ele>
        <time>2021-10-04T14:13:26.774Z</time>
      </trkpt>
      <trkpt lat="49.57215" lon="3.7115">
        <ele>101.55</ele>
        <time>2021-10-04T14:13:35.936Z</time>
      </trkpt>
      <trkpt lat="49.57225" lon="3.71154">
        <ele>100.05</ele>
        <time>2021-10-04T14:13:45.086Z</time>
      </trkpt>
      <trkpt lat="49.57234" lon="3.71149">
        <ele>96.08</ele>
        <time>2021-10-04T14:13:54.491Z</time>
      </trkpt>
      <trkpt lat="49.57243" lon="3.71149">
        <ele>96.06</ele>
        <time>2021-10-04T14:14:03.698Z</time>
      </trkpt>
      <trkpt lat="49.57246" lon="3.7115">
        <ele>92.35</ele>
        <time>2021-10-04T14:14:13.038Z</time>
      </trkpt>
      <trkpt lat="49.57254" lon="3.71146">
        <ele>92.55</ele>
        <time>2021-10-04T14:14:23.023Z</time>
      </trkpt>
      <trkpt lat="49.57268" lon="3.71133">
        <ele>92.67</ele>
        <time>2021-10-04T14:14:32.496Z</time>
      </trkpt>
      <trkpt lat="49.57276" lon="3.71119">
        <ele>93</ele>
        <time>2021-10-04T14:14:42.503Z</time>
      </trkpt>
      <trkpt lat="49.57273" lon="3.71103">
        <ele>95.05</ele>
        <time>2021-10-04T14:14:52.000Z</time>
      </trkpt>
      <trkpt lat="49.57274" lon="3.71084">
        <ele>93.95</ele>
        <time>2021-10-04T14:15:01.499Z</time>
      </trkpt>
      <trkpt lat="49.57279" lon="3.71068">
        <ele>92.53</ele>
        <time>2021-10-04T14:15:10.760Z</time>
      </trkpt>
      <trkpt lat="49.57286" lon="3.71055">
        <ele>96.07</ele>
        <time>2021-10-04T14:15:20.063Z</time>
      </trkpt>
      <trkpt lat="49.57295" lon="3.71044">
        <ele>96.49</ele>
        <time>2021-10-04T14:15:29.754Z</time>
      </trkpt>
      <trkpt lat="49.57302" lon="3.71034">
        <ele>97.31</ele>
        <time>2021-10-04T14:15:38.956Z</time>
      </trkpt>
      <trkpt lat="49.57307" lon="3.7102">
        <ele>99.79</ele>
        <time>2021-10-04T14:15:48.438Z</time>
      </trkpt>
      <trkpt lat="49.57317" lon="3.71009">
        <ele>101.13</ele>
        <time>2021-10-04T14:15:57.501Z</time>
      </trkpt>
      <trkpt lat="49.57323" lon="3.70996">
        <ele>101.91</ele>
        <time>2021-10-04T14:16:06.596Z</time>
      </trkpt>
      <trkpt lat="49.5733" lon="3.70981">
        <ele>102.15</ele>
        <time>2021-10-04T14:16:16.552Z</time>
      </trkpt>
      <trkpt lat="49.57337" lon="3.70967">
        <ele>103.2</ele>
        <time>2021-10-04T14:16:27.000Z</time>
      </trkpt>
      <trkpt lat="49.57344" lon="3.70951">
        <ele>103.69</ele>
        <time>2021-10-04T14:16:37.000Z</time>
      </trkpt>
      <trkpt lat="49.57345" lon="3.70935">
        <ele>103.25</ele>
        <time>2021-10-04T14:16:46.801Z</time>
      </trkpt>
      <trkpt lat="49.57346" lon="3.7092">
        <ele>103.05</ele>
        <time>2021-10-04T14:16:55.852Z</time>
      </trkpt>
      <trkpt lat="49.57348" lon="3.70903">
        <ele>100.75</ele>
        <time>2021-10-04T14:17:05.317Z</time>
      </trkpt>
      <trkpt lat="49.57343" lon="3.70886">
        <ele>98.62</ele>
        <time>2021-10-04T14:17:14.878Z</time>
      </trkpt>
      <trkpt lat="49.57335" lon="3.70871">
        <ele>98.79</ele>
        <time>2021-10-04T14:17:24.000Z</time>
      </trkpt>
      <trkpt lat="49.57336" lon="3.70851">
        <ele>95.83</ele>
        <time>2021-10-04T14:17:33.859Z</time>
      </trkpt>
      <trkpt lat="49.57338" lon="3.70837">
        <ele>95.13</ele>
        <time>2021-10-04T14:17:43.166Z</time>
      </trkpt>
      <trkpt lat="49.57337" lon="3.7082">
        <ele>95.69</ele>
        <time>2021-10-04T14:17:52.512Z</time>
      </trkpt>
      <trkpt lat="49.57331" lon="3.70804">
        <ele>95.41</ele>
        <time>2021-10-04T14:18:01.798Z</time>
      </trkpt>
      <trkpt lat="49.57326" lon="3.70788">
        <ele>96.44</ele>
        <time>2021-10-04T14:18:11.000Z</time>
      </trkpt>
      <trkpt lat="49.57326" lon="3.70767">
        <ele>92.18</ele>
        <time>2021-10-04T14:18:20.492Z</time>
      </trkpt>
      <trkpt lat="49.57329" lon="3.70749">
        <ele>92.23</ele>
        <time>2021-10-04T14:18:31.000Z</time>
      </trkpt>
      <trkpt lat="49.57334" lon="3.70729">
        <ele>93.12</ele>
        <time>2021-10-04T14:18:40.914Z</time>
      </trkpt>
      <trkpt lat="49.57335" lon="3.70712">
        <ele>91.95</ele>
        <time>2021-10-04T14:18:49.957Z</time>
      </trkpt>
      <trkpt lat="49.57333" lon="3.70693">
        <ele>94.36</ele>
        <time>2021-10-04T14:18:59.000Z</time>
      </trkpt>
      <trkpt lat="49.57329" lon="3.70674">
        <ele>93.21</ele>
        <time>2021-10-04T14:19:08.613Z</time>
      </trkpt>
      <trkpt lat="49.5733" lon="3.70662">
        <ele>89.65</ele>
        <time>2021-10-04T14:19:18.099Z</time>
      </trkpt>
      <trkpt lat="49.57329" lon="3.70653">
        <ele>89.17</ele>
        <time>2021-10-04T14:19:27.752Z</time>
      </trkpt>
      <trkpt lat="49.57334" lon="3.70639">
        <ele>91.87</ele>
        <time>2021-10-04T14:19:37.677Z</time>
      </trkpt>
      <trkpt lat="49.57335" lon="3.70624">
        <ele>91.94</ele>
        <time>2021-10-04T14:19:47.000Z</time>
      </trkpt>
      <trkpt lat="49.57328" lon="3.70598">
        <ele>91.17</ele>
        <time>2021-10-04T14:19:56.735Z</time>
      </trkpt>
      <trkpt lat="49.57324" lon="3.70576">
        <ele>91.57</ele>
        <time>2021-10-04T14:20:06.798Z</time>
      </trkpt>
      <trkpt lat="49.57319" lon="3.70557">
        <ele>92.62</ele>
        <time>2021-10-04T14:20:16.842Z</time>
      </trkpt>
      <trkpt lat="49.57326" lon="3.70548">
        <ele>90.93</ele>
        <time>2021-10-04T14:20:25.954Z</time>
      </trkpt>
      <trkpt lat="49.5734" lon="3.70554">
        <ele>93.49</ele>
        <time>2021-10-04T14:20:35.817Z</time>
      </trkpt>
      <trkpt lat="49.57352" lon="3.70558">
        <ele>91.79</ele>
        <time>2021-10-04T14:20:46.000Z</time>
      </trkpt>
      <trkpt lat="49.57362" lon="3.70557">
        <ele>90.1</ele>
        <time>2021-10-04T14:20:55.535Z</time>
      </trkpt>
      <trkpt lat="49.57368" lon="3.70559">
        <ele>91.59</ele>
        <time>2021-10-04T14:21:06.000Z</time>
      </trkpt>
      <trkpt lat="49.57382" lon="3.70564">
        <ele>95.88</ele>
        <time>2021-10-04T14:21:16.000Z</time>
      </trkpt>
      <trkpt lat="49.57396" lon="3.70564">
        <ele>102.29</ele>
        <time>2021-10-04T14:21:25.898Z</time>
      </trkpt>
      <trkpt lat="49.57404" lon="3.7056">
        <ele>102.1</ele>
        <time>2021-10-04T14:21:36.000Z</time>
      </trkpt>
      <trkpt lat="49.57412" lon="3.70547">
        <ele>104.53</ele>
        <time>2021-10-04T14:21:45.314Z</time>
      </trkpt>
      <trkpt lat="49.57421" lon="3.70533">
        <ele>108.39</ele>
        <time>2021-10-04T14:21:55.000Z</time>
      </trkpt>
      <trkpt lat="49.57433" lon="3.70512">
        <ele>111.82</ele>
        <time>2021-10-04T14:22:04.156Z</time>
      </trkpt>
      <trkpt lat="49.5744" lon="3.70496">
        <ele>110.38</ele>
        <time>2021-10-04T14:22:14.000Z</time>
      </trkpt>
      <trkpt lat="49.57445" lon="3.70482">
        <ele>110</ele>
        <time>2021-10-04T14:22:23.354Z</time>
      </trkpt>
      <trkpt lat="49.5745" lon="3.7047">
        <ele>109.51</ele>
        <time>2021-10-04T14:22:33.000Z</time>
      </trkpt>
      <trkpt lat="49.57459" lon="3.70454">
        <ele>106.34</ele>
        <time>2021-10-04T14:22:42.580Z</time>
      </trkpt>
      <trkpt lat="49.57465" lon="3.70441">
        <ele>105.58</ele>
        <time>2021-10-04T14:22:51.957Z</time>
      </trkpt>
      <trkpt lat="49.57468" lon="3.70426">
        <ele>102.85</ele>
        <time>2021-10-04T14:23:00.981Z</time>
      </trkpt>
      <trkpt lat="49.57467" lon="3.7041">
        <ele>101.12</ele>
        <time>2021-10-04T14:23:10.631Z</time>
      </trkpt>
      <trkpt lat="49.57462" lon="3.70392">
        <ele>98.98</ele>
        <time>2021-10-04T14:23:19.657Z</time>
      </trkpt>
      <trkpt lat="49.57455" lon="3.70377">
        <ele>100.07</ele>
        <time>2021-10-04T14:23:29.000Z</time>
      </trkpt>
      <trkpt lat="49.57449" lon="3.70363">
        <ele>100.68</ele>
        <time>2021-10-04T14:23:38.476Z</time>
      </trkpt>
      <trkpt lat="49.57446" lon="3.70349">
        <ele>96.88</ele>
        <time>2021-10-04T14:23:47.654Z</time>
      </trkpt>
      <trkpt lat="49.57444" lon="3.70334">
        <ele>98.29</ele>
        <time>2021-10-04T14:23:56.880Z</time>
      </trkpt>
      <trkpt lat="49.57443" lon="3.70319">
        <ele>93.85</ele>
        <time>2021-10-04T14:24:06.061Z</time>
      </trkpt>
      <trkpt lat="49.57441" lon="3.70305">
        <ele>96.67</ele>
        <time>2021-10-04T14:24:15.412Z</time>
      </trkpt>
      <trkpt lat="49.57439" lon="3.70291">
        <ele>95.77</ele>
        <time>2021-10-04T14:24:24.576Z</time>
      </trkpt>
      <trkpt lat="49.57434" lon="3.70278">
        <ele>95.22</ele>
        <time>2021-10-04T14:24:34.123Z</time>
      </trkpt>
      <trkpt lat="49.57432" lon="3.70265">
        <ele>97.96</ele>
        <time>2021-10-04T14:24:43.797Z</time>
      </trkpt>
      <trkpt lat="49.57424" lon="3.70247">
        <ele>102.39</ele>
        <time>2021-10-04T14:24:52.878Z</time>
      </trkpt>
      <trkpt lat="49.57422" lon="3.70227">
        <ele>101.23</ele>
        <time>2021-10-04T14:25:02.092Z</time>
      </trkpt>
      <trkpt lat="49.57425" lon="3.70208">
        <ele>101.32</ele>
        <time>2021-10-04T14:25:12.000Z</time>
      </trkpt>
      <trkpt lat="49.57428" lon="3.70188">
        <ele>99.84</ele>
        <time>2021-10-04T14:25:21.481Z</time>
      </trkpt>
      <trkpt lat="49.5743" lon="3.70169">
        <ele>97.64</ele>
        <time>2021-10-04T14:25:32.000Z</time>
      </trkpt>
      <trkpt lat="49.57432" lon="3.70155">
        <ele>93.33</ele>
        <time>2021-10-04T14:25:42.000Z</time>
      </trkpt>
      <trkpt lat="49.57433" lon="3.70136">
        <ele>88.2</ele>
        <time>2021-10-04T14:25:52.000Z</time>
      </trkpt>
      <trkpt lat="49.57434" lon="3.70117">
        <ele>88.32</ele>
        <time>2021-10-04T14:26:01.338Z</time>
      </trkpt>
      <trkpt lat="49.57435" lon="3.70098">
        <ele>86.87</ele>
        <time>2021-10-04T14:26:11.024Z</time>
      </trkpt>
      <trkpt lat="49.57436" lon="3.70081">
        <ele>82.26</ele>
        <time>2021-10-04T14:26:20.475Z</time>
      </trkpt>
      <trkpt lat="49.57439" lon="3.70065">
        <ele>81</ele>
        <time>2021-10-04T14:26:29.958Z</time>
      </trkpt>
      <trkpt lat="49.57437" lon="3.70047">
        <ele>78.83</ele>
        <time>2021-10-04T14:26:40.000Z</time>
      </trkpt>
      <trkpt lat="49.57435" lon="3.70027">
        <ele>77.84</ele>
        <time>2021-10-04T14:26:49.319Z</time>
      </trkpt>
      <trkpt lat="49.57434" lon="3.70009">
        <ele>80.8</ele>
        <time>2021-10-04T14:26:58.580Z</time>
      </trkpt>
      <trkpt lat="49.57431" lon="3.69993">
        <ele>82.53</ele>
        <time>2021-10-04T14:27:07.874Z</time>
      </trkpt>
      <trkpt lat="49.57432" lon="3.69976">
        <ele>81.25</ele>
        <time>2021-10-04T14:27:17.000Z</time>
      </trkpt>
      <trkpt lat="49.57434" lon="3.69955">
        <ele>82.02</ele>
        <time>2021-10-04T14:27:26.699Z</time>
      </trkpt>
      <trkpt lat="49.57432" lon="3.69929">
        <ele>83.34</ele>
        <time>2021-10-04T14:27:35.920Z</time>
      </trkpt>
      <trkpt lat="49.5743" lon="3.69908">
        <ele>82.05</ele>
        <time>2021-10-04T14:27:45.098Z</time>
      </trkpt>
      <trkpt lat="49.5743" lon="3.69885">
        <ele>83.01</ele>
        <time>2021-10-04T14:27:54.811Z</time>
      </trkpt>
      <trkpt lat="49.57425" lon="3.69864">
        <ele>83.53</ele>
        <time>2021-10-04T14:28:05.000Z</time>
      </trkpt>
      <trkpt lat="49.5741" lon="3.69855">
        <ele>79.93</ele>
        <time>2021-10-04T14:28:14.437Z</time>
      </trkpt>
      <trkpt lat="49.57396" lon="3.69854">
        <ele>79.92</ele>
        <time>2021-10-04T14:28:23.699Z</time>
      </trkpt>
      <trkpt lat="49.57384" lon="3.69857">
        <ele>80.83</ele>
        <time>2021-10-04T14:28:33.000Z</time>
      </trkpt>
      <trkpt lat="49.57385" lon="3.69865">
        <ele>78.17</ele>
        <time>2021-10-04T14:28:42.716Z</time>
      </trkpt>
      <trkpt lat="49.57391" lon="3.69867">
        <ele>78.42</ele>
        <time>2021-10-04T14:28:52.000Z</time>
      </trkpt>
      <trkpt lat="49.57391" lon="3.69859">
        <ele>81.91</ele>
        <time>2021-10-04T14:29:01.321Z</time>
      </trkpt>
      <trkpt lat="49.57378" lon="3.69857">
        <ele>80.94</ele>
        <time>2021-10-04T14:29:10.554Z</time>
      </trkpt>
      <trkpt lat="49.57367" lon="3.69862">
        <ele>81.29</ele>
        <time>2021-10-04T14:29:20.000Z</time>
      </trkpt>
      <trkpt lat="49.57355" lon="3.69863">
        <ele>83.54</ele>
        <time>2021-10-04T14:29:29.023Z</time>
      </trkpt>
      <trkpt lat="49.57341" lon="3.69865">
        <ele>84.91</ele>
        <time>2021-10-04T14:29:38.971Z</time>
      </trkpt>
      <trkpt lat="49.5733" lon="3.69853">
        <ele>84.91</ele>
        <time>2021-10-04T14:29:48.139Z</time>
      </trkpt>
      <trkpt lat="49.57326" lon="3.69834">
        <ele>86.95</ele>
        <time>2021-10-04T14:29:57.563Z</time>
      </trkpt>
      <trkpt lat="49.57329" lon="3.69816">
        <ele>90.94</ele>
        <time>2021-10-04T14:30:07.059Z</time>
      </trkpt>
      <trkpt lat="49.57336" lon="3.69804">
        <ele>88.63</ele>
        <time>2021-10-04T14:30:17.000Z</time>
      </trkpt>
      <trkpt lat="49.57339" lon="3.69785">
        <ele>86.26</ele>
        <time>2021-10-04T14:30:27.000Z</time>
      </trkpt>
      <trkpt lat="49.57323" lon="3.69763">
        <ele>87.67</ele>
        <time>2021-10-04T14:30:36.358Z</time>
      </trkpt>
      <trkpt lat="49.5731" lon="3.69749">
        <ele>84.89</ele>
        <time>2021-10-04T14:30:45.496Z</time>
      </trkpt>
      <trkpt lat="49.573" lon="3.69732">
        <ele>83.01</ele>
        <time>2021-10-04T14:30:55.459Z</time>
      </trkpt>
      <trkpt lat="49.57291" lon="3.69717">
        <ele>72.84</ele>
        <time>2021-10-04T14:31:04.515Z</time>
      </trkpt>
      <trkpt lat="49.57281" lon="3.69701">
        <ele>73.06</ele>
        <time>2021-10-04T14:31:13.736Z</time>
      </trkpt>
      <trkpt lat="49.57271" lon="3.69685">
        <ele>73.1</ele>
        <time>2021-10-04T14:31:22.918Z</time>
      </trkpt>
      <trkpt lat="49.57262" lon="3.6967">
        <ele>73.06</ele>
        <time>2021-10-04T14:31:32.102Z</time>
      </trkpt>
      <trkpt lat="49.57255" lon="3.69655">
        <ele>72.73</ele>
        <time>2021-10-04T14:31:41.638Z</time>
      </trkpt>
      <trkpt lat="49.57245" lon="3.69641">
        <ele>72.34</ele>
        <time>2021-10-04T14:31:50.880Z</time>
      </trkpt>
      <trkpt lat="49.57236" lon="3.69629">
        <ele>72.22</ele>
        <time>2021-10-04T14:32:00.780Z</time>
      </trkpt>
      <trkpt lat="49.57235" lon="3.69637">
        <ele>72.18</ele>
        <time>2021-10-04T14:32:11.000Z</time>
      </trkpt>
      <trkpt lat="49.57233" lon="3.69637">
        <ele>72.4</ele>
        <time>2021-10-04T14:32:23.736Z</time>
      </trkpt>
      <trkpt lat="49.57231" lon="3.69638">
        <ele>72.2</ele>
        <time>2021-10-04T14:32:33.000Z</time>
      </trkpt>
      <trkpt lat="49.57231" lon="3.69636">
        <ele>71.97</ele>
        <time>2021-10-04T14:32:43.000Z</time>
      </trkpt>
      <trkpt lat="49.57233" lon="3.69635">
        <ele>71.91</ele>
        <time>2021-10-04T14:33:10.000Z</time>
      </trkpt>
      <trkpt lat="49.57239" lon="3.69636">
        <ele>71.85</ele>
        <time>2021-10-04T14:33:19.872Z</time>
      </trkpt>
      <trkpt lat="49.57241" lon="3.69634">
        <ele>71.84</ele>
        <time>2021-10-04T14:33:29.000Z</time>
      </trkpt>
      <trkpt lat="49.57239" lon="3.69635">
        <ele>71.76</ele>
        <time>2021-10-04T14:33:38.680Z</time>
      </trkpt>
      <trkpt lat="49.57236" lon="3.69627">
        <ele>70.95</ele>
        <time>2021-10-04T14:33:47.714Z</time>
      </trkpt>
      <trkpt lat="49.57239" lon="3.69606">
        <ele>71</ele>
        <time>2021-10-04T14:33:57.000Z</time>
      </trkpt>
      <trkpt lat="49.5724" lon="3.69589">
        <ele>71.38</ele>
        <time>2021-10-04T14:34:07.000Z</time>
      </trkpt>
      <trkpt lat="49.57236" lon="3.69568">
        <ele>71.89</ele>
        <time>2021-10-04T14:34:17.380Z</time>
      </trkpt>
      <trkpt lat="49.57235" lon="3.6955">
        <ele>71.92</ele>
        <time>2021-10-04T14:34:26.660Z</time>
      </trkpt>
      <trkpt lat="49.57233" lon="3.6953">
        <ele>72.05</ele>
        <time>2021-10-04T14:34:35.992Z</time>
      </trkpt>
      <trkpt lat="49.57234" lon="3.69513">
        <ele>72.07</ele>
        <time>2021-10-04T14:34:45.111Z</time>
      </trkpt>
      <trkpt lat="49.57237" lon="3.69495">
        <ele>71.89</ele>
        <time>2021-10-04T14:34:55.043Z</time>
      </trkpt>
      <trkpt lat="49.57239" lon="3.69475">
        <ele>71.82</ele>
        <time>2021-10-04T14:35:04.743Z</time>
      </trkpt>
      <trkpt lat="49.57241" lon="3.69454">
        <ele>71.85</ele>
        <time>2021-10-04T14:35:14.492Z</time>
      </trkpt>
      <trkpt lat="49.57243" lon="3.69441">
        <ele>71.94</ele>
        <time>2021-10-04T14:35:23.842Z</time>
      </trkpt>
      <trkpt lat="49.57244" lon="3.69427">
        <ele>71.78</ele>
        <time>2021-10-04T14:35:33.052Z</time>
      </trkpt>
      <trkpt lat="49.57247" lon="3.69408">
        <ele>71.76</ele>
        <time>2021-10-04T14:35:42.874Z</time>
      </trkpt>
      <trkpt lat="49.5725" lon="3.6939">
        <ele>72.03</ele>
        <time>2021-10-04T14:35:51.979Z</time>
      </trkpt>
      <trkpt lat="49.57256" lon="3.69374">
        <ele>71.93</ele>
        <time>2021-10-04T14:36:01.035Z</time>
      </trkpt>
      <trkpt lat="49.57258" lon="3.69356">
        <ele>72.01</ele>
        <time>2021-10-04T14:36:10.056Z</time>
      </trkpt>
      <trkpt lat="49.57268" lon="3.69343">
        <ele>71.95</ele>
        <time>2021-10-04T14:36:20.000Z</time>
      </trkpt>
      <trkpt lat="49.57276" lon="3.69325">
        <ele>72.17</ele>
        <time>2021-10-04T14:36:29.676Z</time>
      </trkpt>
      <trkpt lat="49.5728" lon="3.69308">
        <ele>72.26</ele>
        <time>2021-10-04T14:36:39.093Z</time>
      </trkpt>
      <trkpt lat="49.57285" lon="3.69287">
        <ele>72.63</ele>
        <time>2021-10-04T14:36:48.662Z</time>
      </trkpt>
      <trkpt lat="49.57291" lon="3.69274">
        <ele>72.79</ele>
        <time>2021-10-04T14:36:58.000Z</time>
      </trkpt>
      <trkpt lat="49.57296" lon="3.69259">
        <ele>73.09</ele>
        <time>2021-10-04T14:37:07.032Z</time>
      </trkpt>
      <trkpt lat="49.57293" lon="3.69259">
        <ele>73.13</ele>
        <time>2021-10-04T14:37:17.000Z</time>
      </trkpt>
      <trkpt lat="49.57295" lon="3.69257">
        <ele>73.15</ele>
        <time>2021-10-04T14:37:26.812Z</time>
      </trkpt>
      <trkpt lat="49.57302" lon="3.69239">
        <ele>73.22</ele>
        <time>2021-10-04T14:37:36.145Z</time>
      </trkpt>
      <trkpt lat="49.57306" lon="3.69218">
        <ele>73.49</ele>
        <time>2021-10-04T14:37:46.000Z</time>
      </trkpt>
      <trkpt lat="49.57306" lon="3.69197">
        <ele>73.68</ele>
        <time>2021-10-04T14:37:56.035Z</time>
      </trkpt>
      <trkpt lat="49.57306" lon="3.69176">
        <ele>73.43</ele>
        <time>2021-10-04T14:38:05.612Z</time>
      </trkpt>
      <trkpt lat="49.57305" lon="3.69156">
        <ele>73.4</ele>
        <time>2021-10-04T14:38:14.634Z</time>
      </trkpt>
      <trkpt lat="49.57302" lon="3.69144">
        <ele>73.3</ele>
        <time>2021-10-04T14:38:25.000Z</time>
      </trkpt>
      <trkpt lat="49.57302" lon="3.69122">
        <ele>73.35</ele>
        <time>2021-10-04T14:38:35.000Z</time>
      </trkpt>
      <trkpt lat="49.57299" lon="3.691">
        <ele>73.44</ele>
        <time>2021-10-04T14:38:44.440Z</time>
      </trkpt>
      <trkpt lat="49.57296" lon="3.69084">
        <ele>73.48</ele>
        <time>2021-10-04T14:38:54.000Z</time>
      </trkpt>
      <trkpt lat="49.57291" lon="3.69065">
        <ele>73.23</ele>
        <time>2021-10-04T14:39:03.601Z</time>
      </trkpt>
      <trkpt lat="49.57287" lon="3.69049">
        <ele>73.29</ele>
        <time>2021-10-04T14:39:12.894Z</time>
      </trkpt>
      <trkpt lat="49.57289" lon="3.6903">
        <ele>73.03</ele>
        <time>2021-10-04T14:39:22.141Z</time>
      </trkpt>
      <trkpt lat="49.57297" lon="3.6901">
        <ele>72.89</ele>
        <time>2021-10-04T14:39:31.937Z</time>
      </trkpt>
      <trkpt lat="49.57299" lon="3.68992">
        <ele>72.83</ele>
        <time>2021-10-04T14:39:41.804Z</time>
      </trkpt>
      <trkpt lat="49.57297" lon="3.68975">
        <ele>73.12</ele>
        <time>2021-10-04T14:39:51.678Z</time>
      </trkpt>
      <trkpt lat="49.57295" lon="3.68954">
        <ele>73.45</ele>
        <time>2021-10-04T14:40:00.943Z</time>
      </trkpt>
      <trkpt lat="49.57296" lon="3.68934">
        <ele>73.8</ele>
        <time>2021-10-04T14:40:11.040Z</time>
      </trkpt>
      <trkpt lat="49.57296" lon="3.68918">
        <ele>74.12</ele>
        <time>2021-10-04T14:40:20.320Z</time>
      </trkpt>
      <trkpt lat="49.57294" lon="3.68904">
        <ele>74.06</ele>
        <time>2021-10-04T14:40:29.556Z</time>
      </trkpt>
      <trkpt lat="49.57287" lon="3.68892">
        <ele>73.99</ele>
        <time>2021-10-04T14:40:38.874Z</time>
      </trkpt>
      <trkpt lat="49.57281" lon="3.68876">
        <ele>74.15</ele>
        <time>2021-10-04T14:40:48.420Z</time>
      </trkpt>
      <trkpt lat="49.57274" lon="3.6886">
        <ele>74.38</ele>
        <time>2021-10-04T14:40:57.912Z</time>
      </trkpt>
      <trkpt lat="49.57271" lon="3.68847">
        <ele>74.09</ele>
        <time>2021-10-04T14:41:07.357Z</time>
      </trkpt>
      <trkpt lat="49.57268" lon="3.68835">
        <ele>73.64</ele>
        <time>2021-10-04T14:41:17.000Z</time>
      </trkpt>
      <trkpt lat="49.57262" lon="3.6882">
        <ele>73.45</ele>
        <time>2021-10-04T14:41:26.276Z</time>
      </trkpt>
      <trkpt lat="49.57258" lon="3.68799">
        <ele>73.52</ele>
        <time>2021-10-04T14:41:35.899Z</time>
      </trkpt>
      <trkpt lat="49.57256" lon="3.68778">
        <ele>73.58</ele>
        <time>2021-10-04T14:41:45.421Z</time>
      </trkpt>
      <trkpt lat="49.57257" lon="3.6876">
        <ele>73.67</ele>
        <time>2021-10-04T14:41:55.356Z</time>
      </trkpt>
      <trkpt lat="49.57259" lon="3.68746">
        <ele>73.57</ele>
        <time>2021-10-04T14:42:04.701Z</time>
      </trkpt>
      <trkpt lat="49.57263" lon="3.68731">
        <ele>73.49</ele>
        <time>2021-10-04T14:42:14.000Z</time>
      </trkpt>
      <trkpt lat="49.57262" lon="3.68716">
        <ele>73.63</ele>
        <time>2021-10-04T14:42:24.000Z</time>
      </trkpt>
      <trkpt lat="49.57255" lon="3.68703">
        <ele>73.64</ele>
        <time>2021-10-04T14:42:34.000Z</time>
      </trkpt>
      <trkpt lat="49.57249" lon="3.68699">
        <ele>73.69</ele>
        <time>2021-10-04T14:42:43.055Z</time>
      </trkpt>
      <trkpt lat="49.57238" lon="3.68701">
        <ele>73.76</ele>
        <time>2021-10-04T14:42:53.002Z</time>
      </trkpt>
      <trkpt lat="49.57229" lon="3.68703">
        <ele>73.93</ele>
        <time>2021-10-04T14:43:03.000Z</time>
      </trkpt>
    </trkseg>
  </trk>
</gpx>